<?xml version="1.0" encoding="UTF-8" standalone="no" ?>
<gpx xmlns="http://www.topografix.com/GPX/1/1" xmlns:xsi="http://www.w3.org/2001/XMLSchema-instance" xsi:schemaLocation="http://www.topografix.com/GPX/1/1 http://www.topografix.com/GPX/1/1/gpx.xsd" version="1.1" creator="VisuGPX - https://www.visugpx.com">
  <metadata>
    <name>Lavans-les Dole - Labarre par le canal</name>
    <desc><![CDATA[Randonnée effectuée le 20 septembre 2017.]]></desc>
  </metadata>
  <trk>
    <name><![CDATA[1 févr. 2016 09:04:04]]></name>
    <cmt><![CDATA[1 févr. 2016 09:04:04]]></cmt>
    <trkseg>
      <trkpt lat="47.14681" lon="5.6289">
        <ele>257</ele>
        <time>2016-02-01T08:04:04Z</time>
      </trkpt>
      <trkpt lat="47.14683" lon="5.62894">
        <ele>248</ele>
        <time>2016-02-01T08:04:23Z</time>
      </trkpt>
      <trkpt lat="47.1468" lon="5.62902">
        <ele>246</ele>
        <time>2016-02-01T08:04:35Z</time>
      </trkpt>
      <trkpt lat="47.14679" lon="5.62908">
        <ele>244</ele>
        <time>2016-02-01T08:04:39Z</time>
      </trkpt>
      <trkpt lat="47.14676" lon="5.62914">
        <ele>244</ele>
        <time>2016-02-01T08:04:44Z</time>
      </trkpt>
      <trkpt lat="47.14674" lon="5.62921">
        <ele>244</ele>
        <time>2016-02-01T08:04:48Z</time>
      </trkpt>
      <trkpt lat="47.14671" lon="5.62926">
        <ele>245</ele>
        <time>2016-02-01T08:04:52Z</time>
      </trkpt>
      <trkpt lat="47.14666" lon="5.62927">
        <ele>245</ele>
        <time>2016-02-01T08:04:57Z</time>
      </trkpt>
      <trkpt lat="47.14661" lon="5.62927">
        <ele>246</ele>
        <time>2016-02-01T08:05:02Z</time>
      </trkpt>
      <trkpt lat="47.14652" lon="5.62924">
        <ele>245</ele>
        <time>2016-02-01T08:05:12Z</time>
      </trkpt>
      <trkpt lat="47.14648" lon="5.62921">
        <ele>244</ele>
        <time>2016-02-01T08:05:16Z</time>
      </trkpt>
      <trkpt lat="47.14643" lon="5.62918">
        <ele>244</ele>
        <time>2016-02-01T08:05:20Z</time>
      </trkpt>
      <trkpt lat="47.14633" lon="5.62921">
        <ele>244</ele>
        <time>2016-02-01T08:05:58Z</time>
      </trkpt>
      <trkpt lat="47.14627" lon="5.62924">
        <ele>245</ele>
        <time>2016-02-01T08:06:01Z</time>
      </trkpt>
      <trkpt lat="47.14623" lon="5.62927">
        <ele>244</ele>
        <time>2016-02-01T08:06:04Z</time>
      </trkpt>
      <trkpt lat="47.1462" lon="5.62931">
        <ele>242</ele>
        <time>2016-02-01T08:06:09Z</time>
      </trkpt>
      <trkpt lat="47.14616" lon="5.62936">
        <ele>242</ele>
        <time>2016-02-01T08:06:12Z</time>
      </trkpt>
      <trkpt lat="47.14611" lon="5.62938">
        <ele>241</ele>
        <time>2016-02-01T08:06:15Z</time>
      </trkpt>
      <trkpt lat="47.14603" lon="5.62942">
        <ele>238</ele>
        <time>2016-02-01T08:06:31Z</time>
      </trkpt>
      <trkpt lat="47.14593" lon="5.62937">
        <ele>236</ele>
        <time>2016-02-01T08:06:42Z</time>
      </trkpt>
      <trkpt lat="47.14589" lon="5.62932">
        <ele>236</ele>
        <time>2016-02-01T08:06:46Z</time>
      </trkpt>
      <trkpt lat="47.14584" lon="5.62918">
        <ele>234</ele>
        <time>2016-02-01T08:06:54Z</time>
      </trkpt>
      <trkpt lat="47.14567" lon="5.62863">
        <ele>228</ele>
        <time>2016-02-01T08:07:25Z</time>
      </trkpt>
      <trkpt lat="47.14555" lon="5.62837">
        <ele>228</ele>
        <time>2016-02-01T08:07:41Z</time>
      </trkpt>
      <trkpt lat="47.14537" lon="5.62782">
        <ele>224</ele>
        <time>2016-02-01T08:08:11Z</time>
      </trkpt>
      <trkpt lat="47.14535" lon="5.62768">
        <ele>224</ele>
        <time>2016-02-01T08:08:19Z</time>
      </trkpt>
      <trkpt lat="47.14522" lon="5.62713">
        <ele>219</ele>
        <time>2016-02-01T08:08:52Z</time>
      </trkpt>
      <trkpt lat="47.1452" lon="5.62707">
        <ele>219</ele>
        <time>2016-02-01T08:08:56Z</time>
      </trkpt>
      <trkpt lat="47.14518" lon="5.62701">
        <ele>219</ele>
        <time>2016-02-01T08:08:59Z</time>
      </trkpt>
      <trkpt lat="47.14515" lon="5.62686">
        <ele>218</ele>
        <time>2016-02-01T08:09:07Z</time>
      </trkpt>
      <trkpt lat="47.14507" lon="5.62676">
        <ele>218</ele>
        <time>2016-02-01T08:09:15Z</time>
      </trkpt>
      <trkpt lat="47.14488" lon="5.62672">
        <ele>214</ele>
        <time>2016-02-01T08:09:28Z</time>
      </trkpt>
      <trkpt lat="47.14467" lon="5.62682">
        <ele>211</ele>
        <time>2016-02-01T08:09:43Z</time>
      </trkpt>
      <trkpt lat="47.14462" lon="5.62684">
        <ele>211</ele>
        <time>2016-02-01T08:09:46Z</time>
      </trkpt>
      <trkpt lat="47.14458" lon="5.62687">
        <ele>211</ele>
        <time>2016-02-01T08:09:50Z</time>
      </trkpt>
      <trkpt lat="47.14452" lon="5.62689">
        <ele>211</ele>
        <time>2016-02-01T08:09:54Z</time>
      </trkpt>
      <trkpt lat="47.14447" lon="5.6269">
        <ele>210</ele>
        <time>2016-02-01T08:09:58Z</time>
      </trkpt>
      <trkpt lat="47.14423" lon="5.62706">
        <ele>209</ele>
        <time>2016-02-01T08:10:19Z</time>
      </trkpt>
      <trkpt lat="47.14409" lon="5.62712">
        <ele>209</ele>
        <time>2016-02-01T08:10:30Z</time>
      </trkpt>
      <trkpt lat="47.14385" lon="5.62727">
        <ele>211</ele>
        <time>2016-02-01T08:10:50Z</time>
      </trkpt>
      <trkpt lat="47.14375" lon="5.62731">
        <ele>211</ele>
        <time>2016-02-01T08:10:58Z</time>
      </trkpt>
      <trkpt lat="47.14366" lon="5.62736">
        <ele>212</ele>
        <time>2016-02-01T08:11:07Z</time>
      </trkpt>
      <trkpt lat="47.14363" lon="5.62741">
        <ele>212</ele>
        <time>2016-02-01T08:11:12Z</time>
      </trkpt>
      <trkpt lat="47.14361" lon="5.62748">
        <ele>212</ele>
        <time>2016-02-01T08:11:17Z</time>
      </trkpt>
      <trkpt lat="47.14363" lon="5.62769">
        <ele>212</ele>
        <time>2016-02-01T08:11:29Z</time>
      </trkpt>
      <trkpt lat="47.14365" lon="5.62791">
        <ele>210</ele>
        <time>2016-02-01T08:11:42Z</time>
      </trkpt>
      <trkpt lat="47.1437" lon="5.62806">
        <ele>210</ele>
        <time>2016-02-01T08:11:50Z</time>
      </trkpt>
      <trkpt lat="47.14378" lon="5.62835">
        <ele>208</ele>
        <time>2016-02-01T08:12:06Z</time>
      </trkpt>
      <trkpt lat="47.14382" lon="5.62855">
        <ele>208</ele>
        <time>2016-02-01T08:12:18Z</time>
      </trkpt>
      <trkpt lat="47.14392" lon="5.62914">
        <ele>211</ele>
        <time>2016-02-01T08:12:51Z</time>
      </trkpt>
      <trkpt lat="47.14394" lon="5.62929">
        <ele>213</ele>
        <time>2016-02-01T08:12:59Z</time>
      </trkpt>
      <trkpt lat="47.144" lon="5.62973">
        <ele>213</ele>
        <time>2016-02-01T08:13:23Z</time>
      </trkpt>
      <trkpt lat="47.14401" lon="5.6298">
        <ele>213</ele>
        <time>2016-02-01T08:13:28Z</time>
      </trkpt>
      <trkpt lat="47.14402" lon="5.62995">
        <ele>213</ele>
        <time>2016-02-01T08:13:36Z</time>
      </trkpt>
      <trkpt lat="47.14413" lon="5.63051">
        <ele>214</ele>
        <time>2016-02-01T08:14:07Z</time>
      </trkpt>
      <trkpt lat="47.14423" lon="5.63111">
        <ele>214</ele>
        <time>2016-02-01T08:14:39Z</time>
      </trkpt>
      <trkpt lat="47.14432" lon="5.63171">
        <ele>215</ele>
        <time>2016-02-01T08:15:11Z</time>
      </trkpt>
      <trkpt lat="47.14432" lon="5.63177">
        <ele>215</ele>
        <time>2016-02-01T08:15:15Z</time>
      </trkpt>
      <trkpt lat="47.14433" lon="5.63184">
        <ele>215</ele>
        <time>2016-02-01T08:15:19Z</time>
      </trkpt>
      <trkpt lat="47.14434" lon="5.63192">
        <ele>215</ele>
        <time>2016-02-01T08:15:23Z</time>
      </trkpt>
      <trkpt lat="47.14433" lon="5.63199">
        <ele>215</ele>
        <time>2016-02-01T08:15:29Z</time>
      </trkpt>
      <trkpt lat="47.14439" lon="5.63228">
        <ele>216</ele>
        <time>2016-02-01T08:15:44Z</time>
      </trkpt>
      <trkpt lat="47.14445" lon="5.63236">
        <ele>213</ele>
        <time>2016-02-01T08:15:51Z</time>
      </trkpt>
      <trkpt lat="47.14445" lon="5.63242">
        <ele>212</ele>
        <time>2016-02-01T08:15:54Z</time>
      </trkpt>
      <trkpt lat="47.14446" lon="5.6325">
        <ele>212</ele>
        <time>2016-02-01T08:15:59Z</time>
      </trkpt>
      <trkpt lat="47.14449" lon="5.63278">
        <ele>215</ele>
        <time>2016-02-01T08:16:16Z</time>
      </trkpt>
      <trkpt lat="47.1445" lon="5.63285">
        <ele>215</ele>
        <time>2016-02-01T08:16:19Z</time>
      </trkpt>
      <trkpt lat="47.14452" lon="5.63292">
        <ele>215</ele>
        <time>2016-02-01T08:16:23Z</time>
      </trkpt>
      <trkpt lat="47.14458" lon="5.63322">
        <ele>215</ele>
        <time>2016-02-01T08:16:39Z</time>
      </trkpt>
      <trkpt lat="47.14459" lon="5.63329">
        <ele>215</ele>
        <time>2016-02-01T08:16:43Z</time>
      </trkpt>
      <trkpt lat="47.14462" lon="5.63351">
        <ele>215</ele>
        <time>2016-02-01T08:16:55Z</time>
      </trkpt>
      <trkpt lat="47.14472" lon="5.63412">
        <ele>212</ele>
        <time>2016-02-01T08:17:28Z</time>
      </trkpt>
      <trkpt lat="47.14476" lon="5.63434">
        <ele>212</ele>
        <time>2016-02-01T08:17:39Z</time>
      </trkpt>
      <trkpt lat="47.14477" lon="5.6344">
        <ele>212</ele>
        <time>2016-02-01T08:17:43Z</time>
      </trkpt>
      <trkpt lat="47.14483" lon="5.63478">
        <ele>215</ele>
        <time>2016-02-01T08:18:03Z</time>
      </trkpt>
      <trkpt lat="47.14484" lon="5.63485">
        <ele>214</ele>
        <time>2016-02-01T08:18:07Z</time>
      </trkpt>
      <trkpt lat="47.14485" lon="5.63492">
        <ele>214</ele>
        <time>2016-02-01T08:18:11Z</time>
      </trkpt>
      <trkpt lat="47.14486" lon="5.63499">
        <ele>214</ele>
        <time>2016-02-01T08:18:15Z</time>
      </trkpt>
      <trkpt lat="47.14488" lon="5.63506">
        <ele>214</ele>
        <time>2016-02-01T08:18:19Z</time>
      </trkpt>
      <trkpt lat="47.14496" lon="5.63552">
        <ele>213</ele>
        <time>2016-02-01T08:18:42Z</time>
      </trkpt>
      <trkpt lat="47.14497" lon="5.63559">
        <ele>212</ele>
        <time>2016-02-01T08:18:46Z</time>
      </trkpt>
      <trkpt lat="47.14498" lon="5.63566">
        <ele>212</ele>
        <time>2016-02-01T08:18:50Z</time>
      </trkpt>
      <trkpt lat="47.145" lon="5.6358">
        <ele>213</ele>
        <time>2016-02-01T08:18:58Z</time>
      </trkpt>
      <trkpt lat="47.14505" lon="5.63607">
        <ele>213</ele>
        <time>2016-02-01T08:19:14Z</time>
      </trkpt>
      <trkpt lat="47.1451" lon="5.63636">
        <ele>213</ele>
        <time>2016-02-01T08:19:29Z</time>
      </trkpt>
      <trkpt lat="47.14518" lon="5.63689">
        <ele>213</ele>
        <time>2016-02-01T08:19:59Z</time>
      </trkpt>
      <trkpt lat="47.14529" lon="5.63756">
        <ele>214</ele>
        <time>2016-02-01T08:20:32Z</time>
      </trkpt>
      <trkpt lat="47.1453" lon="5.63762">
        <ele>215</ele>
        <time>2016-02-01T08:20:36Z</time>
      </trkpt>
      <trkpt lat="47.14531" lon="5.63769">
        <ele>215</ele>
        <time>2016-02-01T08:20:40Z</time>
      </trkpt>
      <trkpt lat="47.14532" lon="5.63777">
        <ele>215</ele>
        <time>2016-02-01T08:20:45Z</time>
      </trkpt>
      <trkpt lat="47.14533" lon="5.63785">
        <ele>215</ele>
        <time>2016-02-01T08:20:49Z</time>
      </trkpt>
      <trkpt lat="47.14536" lon="5.63808">
        <ele>213</ele>
        <time>2016-02-01T08:21:01Z</time>
      </trkpt>
      <trkpt lat="47.14541" lon="5.6383">
        <ele>213</ele>
        <time>2016-02-01T08:21:13Z</time>
      </trkpt>
      <trkpt lat="47.14542" lon="5.63838">
        <ele>213</ele>
        <time>2016-02-01T08:21:17Z</time>
      </trkpt>
      <trkpt lat="47.1455" lon="5.63896">
        <ele>215</ele>
        <time>2016-02-01T08:21:49Z</time>
      </trkpt>
      <trkpt lat="47.14551" lon="5.63902">
        <ele>215</ele>
        <time>2016-02-01T08:21:52Z</time>
      </trkpt>
      <trkpt lat="47.14553" lon="5.6391">
        <ele>215</ele>
        <time>2016-02-01T08:21:56Z</time>
      </trkpt>
      <trkpt lat="47.14555" lon="5.63918">
        <ele>215</ele>
        <time>2016-02-01T08:22:00Z</time>
      </trkpt>
      <trkpt lat="47.14558" lon="5.6394">
        <ele>215</ele>
        <time>2016-02-01T08:22:12Z</time>
      </trkpt>
      <trkpt lat="47.14558" lon="5.63943">
        <ele>214</ele>
        <time>2016-02-01T08:22:18Z</time>
      </trkpt>
      <trkpt lat="47.1456" lon="5.63953">
        <ele>213</ele>
        <time>2016-02-01T08:22:29Z</time>
      </trkpt>
      <trkpt lat="47.14565" lon="5.63983">
        <ele>214</ele>
        <time>2016-02-01T08:22:47Z</time>
      </trkpt>
      <trkpt lat="47.14571" lon="5.64006">
        <ele>213</ele>
        <time>2016-02-01T08:22:59Z</time>
      </trkpt>
      <trkpt lat="47.14571" lon="5.64014">
        <ele>212</ele>
        <time>2016-02-01T08:23:04Z</time>
      </trkpt>
      <trkpt lat="47.14572" lon="5.64021">
        <ele>212</ele>
        <time>2016-02-01T08:23:08Z</time>
      </trkpt>
      <trkpt lat="47.14578" lon="5.64059">
        <ele>214</ele>
        <time>2016-02-01T08:23:28Z</time>
      </trkpt>
      <trkpt lat="47.1458" lon="5.64066">
        <ele>215</ele>
        <time>2016-02-01T08:23:32Z</time>
      </trkpt>
      <trkpt lat="47.14581" lon="5.64073">
        <ele>215</ele>
        <time>2016-02-01T08:23:37Z</time>
      </trkpt>
      <trkpt lat="47.14586" lon="5.64115">
        <ele>215</ele>
        <time>2016-02-01T08:23:58Z</time>
      </trkpt>
      <trkpt lat="47.14596" lon="5.6417">
        <ele>213</ele>
        <time>2016-02-01T08:24:27Z</time>
      </trkpt>
      <trkpt lat="47.14597" lon="5.64177">
        <ele>213</ele>
        <time>2016-02-01T08:24:31Z</time>
      </trkpt>
      <trkpt lat="47.14598" lon="5.64184">
        <ele>213</ele>
        <time>2016-02-01T08:24:34Z</time>
      </trkpt>
      <trkpt lat="47.14597" lon="5.64192">
        <ele>212</ele>
        <time>2016-02-01T08:24:38Z</time>
      </trkpt>
      <trkpt lat="47.14598" lon="5.642">
        <ele>212</ele>
        <time>2016-02-01T08:24:42Z</time>
      </trkpt>
      <trkpt lat="47.146" lon="5.64216">
        <ele>213</ele>
        <time>2016-02-01T08:24:51Z</time>
      </trkpt>
      <trkpt lat="47.14609" lon="5.64241">
        <ele>215</ele>
        <time>2016-02-01T08:25:07Z</time>
      </trkpt>
      <trkpt lat="47.14611" lon="5.64263">
        <ele>216</ele>
        <time>2016-02-01T08:25:19Z</time>
      </trkpt>
      <trkpt lat="47.14622" lon="5.64322">
        <ele>215</ele>
        <time>2016-02-01T08:25:51Z</time>
      </trkpt>
      <trkpt lat="47.14628" lon="5.64381">
        <ele>214</ele>
        <time>2016-02-01T08:26:23Z</time>
      </trkpt>
      <trkpt lat="47.14636" lon="5.64426">
        <ele>214</ele>
        <time>2016-02-01T08:26:45Z</time>
      </trkpt>
      <trkpt lat="47.14642" lon="5.64461">
        <ele>215</ele>
        <time>2016-02-01T08:27:04Z</time>
      </trkpt>
      <trkpt lat="47.14648" lon="5.64484">
        <ele>213</ele>
        <time>2016-02-01T08:27:16Z</time>
      </trkpt>
      <trkpt lat="47.14658" lon="5.64545">
        <ele>214</ele>
        <time>2016-02-01T08:27:48Z</time>
      </trkpt>
      <trkpt lat="47.1466" lon="5.64566">
        <ele>214</ele>
        <time>2016-02-01T08:28:00Z</time>
      </trkpt>
      <trkpt lat="47.14667" lon="5.64626">
        <ele>215</ele>
        <time>2016-02-01T08:28:33Z</time>
      </trkpt>
      <trkpt lat="47.1467" lon="5.64663">
        <ele>215</ele>
        <time>2016-02-01T08:28:50Z</time>
      </trkpt>
      <trkpt lat="47.14671" lon="5.64685">
        <ele>214</ele>
        <time>2016-02-01T08:29:01Z</time>
      </trkpt>
      <trkpt lat="47.14671" lon="5.64692">
        <ele>214</ele>
        <time>2016-02-01T08:29:05Z</time>
      </trkpt>
      <trkpt lat="47.14675" lon="5.6472">
        <ele>214</ele>
        <time>2016-02-01T08:29:20Z</time>
      </trkpt>
      <trkpt lat="47.14677" lon="5.64751">
        <ele>215</ele>
        <time>2016-02-01T08:29:35Z</time>
      </trkpt>
      <trkpt lat="47.14678" lon="5.64757">
        <ele>215</ele>
        <time>2016-02-01T08:29:39Z</time>
      </trkpt>
      <trkpt lat="47.14678" lon="5.64764">
        <ele>215</ele>
        <time>2016-02-01T08:29:43Z</time>
      </trkpt>
      <trkpt lat="47.14679" lon="5.64818">
        <ele>217</ele>
        <time>2016-02-01T08:30:12Z</time>
      </trkpt>
      <trkpt lat="47.14682" lon="5.64842">
        <ele>217</ele>
        <time>2016-02-01T08:30:24Z</time>
      </trkpt>
      <trkpt lat="47.14682" lon="5.6485">
        <ele>217</ele>
        <time>2016-02-01T08:30:29Z</time>
      </trkpt>
      <trkpt lat="47.14682" lon="5.64858">
        <ele>218</ele>
        <time>2016-02-01T08:30:33Z</time>
      </trkpt>
      <trkpt lat="47.14683" lon="5.64866">
        <ele>217</ele>
        <time>2016-02-01T08:30:37Z</time>
      </trkpt>
      <trkpt lat="47.14684" lon="5.64874">
        <ele>217</ele>
        <time>2016-02-01T08:30:41Z</time>
      </trkpt>
      <trkpt lat="47.14685" lon="5.64913">
        <ele>217</ele>
        <time>2016-02-01T08:31:02Z</time>
      </trkpt>
      <trkpt lat="47.14686" lon="5.64921">
        <ele>218</ele>
        <time>2016-02-01T08:31:06Z</time>
      </trkpt>
      <trkpt lat="47.14686" lon="5.64928">
        <ele>218</ele>
        <time>2016-02-01T08:31:09Z</time>
      </trkpt>
      <trkpt lat="47.14687" lon="5.64935">
        <ele>217</ele>
        <time>2016-02-01T08:31:13Z</time>
      </trkpt>
      <trkpt lat="47.14691" lon="5.65001">
        <ele>215</ele>
        <time>2016-02-01T08:31:45Z</time>
      </trkpt>
      <trkpt lat="47.14691" lon="5.65009">
        <ele>215</ele>
        <time>2016-02-01T08:31:49Z</time>
      </trkpt>
      <trkpt lat="47.14691" lon="5.65016">
        <ele>215</ele>
        <time>2016-02-01T08:31:53Z</time>
      </trkpt>
      <trkpt lat="47.14689" lon="5.65062">
        <ele>214</ele>
        <time>2016-02-01T08:32:18Z</time>
      </trkpt>
      <trkpt lat="47.1469" lon="5.6507">
        <ele>214</ele>
        <time>2016-02-01T08:32:22Z</time>
      </trkpt>
      <trkpt lat="47.14689" lon="5.65133">
        <ele>215</ele>
        <time>2016-02-01T08:32:55Z</time>
      </trkpt>
      <trkpt lat="47.14687" lon="5.65194">
        <ele>214</ele>
        <time>2016-02-01T08:33:27Z</time>
      </trkpt>
      <trkpt lat="47.1467" lon="5.65251">
        <ele>213</ele>
        <time>2016-02-01T08:33:58Z</time>
      </trkpt>
      <trkpt lat="47.14655" lon="5.6528">
        <ele>213</ele>
        <time>2016-02-01T08:34:17Z</time>
      </trkpt>
      <trkpt lat="47.14637" lon="5.65317">
        <ele>215</ele>
        <time>2016-02-01T08:34:41Z</time>
      </trkpt>
      <trkpt lat="47.14632" lon="5.65331">
        <ele>215</ele>
        <time>2016-02-01T08:34:49Z</time>
      </trkpt>
      <trkpt lat="47.14631" lon="5.65338">
        <ele>215</ele>
        <time>2016-02-01T08:34:53Z</time>
      </trkpt>
      <trkpt lat="47.14629" lon="5.65344">
        <ele>216</ele>
        <time>2016-02-01T08:34:57Z</time>
      </trkpt>
      <trkpt lat="47.14628" lon="5.65352">
        <ele>216</ele>
        <time>2016-02-01T08:35:01Z</time>
      </trkpt>
      <trkpt lat="47.14617" lon="5.6541">
        <ele>214</ele>
        <time>2016-02-01T08:35:34Z</time>
      </trkpt>
      <trkpt lat="47.14615" lon="5.65434">
        <ele>213</ele>
        <time>2016-02-01T08:35:45Z</time>
      </trkpt>
      <trkpt lat="47.14614" lon="5.65449">
        <ele>214</ele>
        <time>2016-02-01T08:35:53Z</time>
      </trkpt>
      <trkpt lat="47.14613" lon="5.65456">
        <ele>213</ele>
        <time>2016-02-01T08:35:57Z</time>
      </trkpt>
      <trkpt lat="47.14611" lon="5.65463">
        <ele>213</ele>
        <time>2016-02-01T08:36:01Z</time>
      </trkpt>
      <trkpt lat="47.14611" lon="5.6547">
        <ele>214</ele>
        <time>2016-02-01T08:36:05Z</time>
      </trkpt>
      <trkpt lat="47.14605" lon="5.65526">
        <ele>214</ele>
        <time>2016-02-01T08:36:35Z</time>
      </trkpt>
      <trkpt lat="47.14608" lon="5.65534">
        <ele>214</ele>
        <time>2016-02-01T08:36:39Z</time>
      </trkpt>
      <trkpt lat="47.14609" lon="5.65557">
        <ele>215</ele>
        <time>2016-02-01T08:36:50Z</time>
      </trkpt>
      <trkpt lat="47.14608" lon="5.65565">
        <ele>215</ele>
        <time>2016-02-01T08:36:54Z</time>
      </trkpt>
      <trkpt lat="47.14608" lon="5.65573">
        <ele>215</ele>
        <time>2016-02-01T08:36:59Z</time>
      </trkpt>
      <trkpt lat="47.14605" lon="5.65586">
        <ele>215</ele>
        <time>2016-02-01T08:37:07Z</time>
      </trkpt>
      <trkpt lat="47.14604" lon="5.65601">
        <ele>214</ele>
        <time>2016-02-01T08:37:16Z</time>
      </trkpt>
      <trkpt lat="47.14603" lon="5.65608">
        <ele>214</ele>
        <time>2016-02-01T08:37:20Z</time>
      </trkpt>
      <trkpt lat="47.14602" lon="5.65615">
        <ele>215</ele>
        <time>2016-02-01T08:37:25Z</time>
      </trkpt>
      <trkpt lat="47.14593" lon="5.65664">
        <ele>213</ele>
        <time>2016-02-01T08:37:55Z</time>
      </trkpt>
      <trkpt lat="47.14589" lon="5.65694">
        <ele>213</ele>
        <time>2016-02-01T08:38:12Z</time>
      </trkpt>
      <trkpt lat="47.14588" lon="5.65708">
        <ele>214</ele>
        <time>2016-02-01T08:38:20Z</time>
      </trkpt>
      <trkpt lat="47.14588" lon="5.65715">
        <ele>214</ele>
        <time>2016-02-01T08:38:24Z</time>
      </trkpt>
      <trkpt lat="47.14587" lon="5.65765">
        <ele>212</ele>
        <time>2016-02-01T08:38:50Z</time>
      </trkpt>
      <trkpt lat="47.14581" lon="5.65779">
        <ele>212</ele>
        <time>2016-02-01T08:38:57Z</time>
      </trkpt>
      <trkpt lat="47.14578" lon="5.65794">
        <ele>212</ele>
        <time>2016-02-01T08:39:05Z</time>
      </trkpt>
      <trkpt lat="47.14571" lon="5.65821">
        <ele>213</ele>
        <time>2016-02-01T08:39:23Z</time>
      </trkpt>
      <trkpt lat="47.1457" lon="5.65837">
        <ele>214</ele>
        <time>2016-02-01T08:39:32Z</time>
      </trkpt>
      <trkpt lat="47.14567" lon="5.65851">
        <ele>215</ele>
        <time>2016-02-01T08:39:42Z</time>
      </trkpt>
      <trkpt lat="47.14565" lon="5.65865">
        <ele>214</ele>
        <time>2016-02-01T08:39:50Z</time>
      </trkpt>
      <trkpt lat="47.14564" lon="5.65881">
        <ele>214</ele>
        <time>2016-02-01T08:39:58Z</time>
      </trkpt>
      <trkpt lat="47.14564" lon="5.65898">
        <ele>213</ele>
        <time>2016-02-01T08:40:06Z</time>
      </trkpt>
      <trkpt lat="47.1457" lon="5.65909">
        <ele>212</ele>
        <time>2016-02-01T08:40:14Z</time>
      </trkpt>
      <trkpt lat="47.14589" lon="5.65918">
        <ele>211</ele>
        <time>2016-02-01T08:40:30Z</time>
      </trkpt>
      <trkpt lat="47.14591" lon="5.65925">
        <ele>211</ele>
        <time>2016-02-01T08:40:35Z</time>
      </trkpt>
      <trkpt lat="47.14592" lon="5.65933">
        <ele>211</ele>
        <time>2016-02-01T08:40:43Z</time>
      </trkpt>
      <trkpt lat="47.14587" lon="5.65954">
        <ele>211</ele>
        <time>2016-02-01T08:40:56Z</time>
      </trkpt>
      <trkpt lat="47.14585" lon="5.6597">
        <ele>211</ele>
        <time>2016-02-01T08:41:06Z</time>
      </trkpt>
      <trkpt lat="47.14573" lon="5.66017">
        <ele>214</ele>
        <time>2016-02-01T08:41:36Z</time>
      </trkpt>
      <trkpt lat="47.1457" lon="5.66024">
        <ele>214</ele>
        <time>2016-02-01T08:41:41Z</time>
      </trkpt>
      <trkpt lat="47.14568" lon="5.6603">
        <ele>215</ele>
        <time>2016-02-01T08:41:45Z</time>
      </trkpt>
      <trkpt lat="47.14565" lon="5.66037">
        <ele>214</ele>
        <time>2016-02-01T08:41:50Z</time>
      </trkpt>
      <trkpt lat="47.1456" lon="5.66058">
        <ele>215</ele>
        <time>2016-02-01T08:42:02Z</time>
      </trkpt>
      <trkpt lat="47.14556" lon="5.66063">
        <ele>214</ele>
        <time>2016-02-01T08:42:06Z</time>
      </trkpt>
      <trkpt lat="47.14553" lon="5.66069">
        <ele>215</ele>
        <time>2016-02-01T08:42:10Z</time>
      </trkpt>
      <trkpt lat="47.1455" lon="5.66074">
        <ele>215</ele>
        <time>2016-02-01T08:42:15Z</time>
      </trkpt>
      <trkpt lat="47.1454" lon="5.66099">
        <ele>215</ele>
        <time>2016-02-01T08:42:31Z</time>
      </trkpt>
      <trkpt lat="47.14532" lon="5.66117">
        <ele>214</ele>
        <time>2016-02-01T08:42:43Z</time>
      </trkpt>
      <trkpt lat="47.14525" lon="5.66129">
        <ele>214</ele>
        <time>2016-02-01T08:42:52Z</time>
      </trkpt>
      <trkpt lat="47.14522" lon="5.66135">
        <ele>214</ele>
        <time>2016-02-01T08:42:56Z</time>
      </trkpt>
      <trkpt lat="47.1452" lon="5.66142">
        <ele>214</ele>
        <time>2016-02-01T08:43:01Z</time>
      </trkpt>
      <trkpt lat="47.14514" lon="5.66155">
        <ele>214</ele>
        <time>2016-02-01T08:43:09Z</time>
      </trkpt>
      <trkpt lat="47.1451" lon="5.66159">
        <ele>214</ele>
        <time>2016-02-01T08:43:14Z</time>
      </trkpt>
      <trkpt lat="47.14505" lon="5.66163">
        <ele>215</ele>
        <time>2016-02-01T08:43:19Z</time>
      </trkpt>
      <trkpt lat="47.14476" lon="5.66204">
        <ele>214</ele>
        <time>2016-02-01T08:43:50Z</time>
      </trkpt>
      <trkpt lat="47.14444" lon="5.66242">
        <ele>213</ele>
        <time>2016-02-01T08:44:22Z</time>
      </trkpt>
      <trkpt lat="47.14441" lon="5.66247">
        <ele>213</ele>
        <time>2016-02-01T08:44:26Z</time>
      </trkpt>
      <trkpt lat="47.14438" lon="5.66253">
        <ele>213</ele>
        <time>2016-02-01T08:44:31Z</time>
      </trkpt>
      <trkpt lat="47.14437" lon="5.66258">
        <ele>214</ele>
        <time>2016-02-01T08:44:39Z</time>
      </trkpt>
      <trkpt lat="47.14425" lon="5.66271">
        <ele>216</ele>
        <time>2016-02-01T08:44:57Z</time>
      </trkpt>
      <trkpt lat="47.14407" lon="5.66311">
        <ele>217</ele>
        <time>2016-02-01T08:45:21Z</time>
      </trkpt>
      <trkpt lat="47.14386" lon="5.66341">
        <ele>216</ele>
        <time>2016-02-01T08:45:44Z</time>
      </trkpt>
      <trkpt lat="47.14366" lon="5.66394">
        <ele>217</ele>
        <time>2016-02-01T08:46:18Z</time>
      </trkpt>
      <trkpt lat="47.14358" lon="5.66421">
        <ele>216</ele>
        <time>2016-02-01T08:46:33Z</time>
      </trkpt>
      <trkpt lat="47.14354" lon="5.66426">
        <ele>216</ele>
        <time>2016-02-01T08:46:37Z</time>
      </trkpt>
      <trkpt lat="47.14343" lon="5.66441">
        <ele>216</ele>
        <time>2016-02-01T08:46:49Z</time>
      </trkpt>
      <trkpt lat="47.1434" lon="5.66449">
        <ele>217</ele>
        <time>2016-02-01T08:46:55Z</time>
      </trkpt>
      <trkpt lat="47.1434" lon="5.66465">
        <ele>218</ele>
        <time>2016-02-01T08:47:03Z</time>
      </trkpt>
      <trkpt lat="47.14332" lon="5.66493">
        <ele>217</ele>
        <time>2016-02-01T08:47:20Z</time>
      </trkpt>
      <trkpt lat="47.14329" lon="5.66508">
        <ele>216</ele>
        <time>2016-02-01T08:47:28Z</time>
      </trkpt>
      <trkpt lat="47.14327" lon="5.66516">
        <ele>216</ele>
        <time>2016-02-01T08:47:32Z</time>
      </trkpt>
      <trkpt lat="47.14324" lon="5.66521">
        <ele>216</ele>
        <time>2016-02-01T08:47:35Z</time>
      </trkpt>
      <trkpt lat="47.14317" lon="5.66532">
        <ele>216</ele>
        <time>2016-02-01T08:47:43Z</time>
      </trkpt>
      <trkpt lat="47.14315" lon="5.66538">
        <ele>214</ele>
        <time>2016-02-01T08:47:48Z</time>
      </trkpt>
      <trkpt lat="47.14311" lon="5.66551">
        <ele>213</ele>
        <time>2016-02-01T08:47:55Z</time>
      </trkpt>
      <trkpt lat="47.14308" lon="5.66557">
        <ele>213</ele>
        <time>2016-02-01T08:47:59Z</time>
      </trkpt>
      <trkpt lat="47.14305" lon="5.66562">
        <ele>213</ele>
        <time>2016-02-01T08:48:03Z</time>
      </trkpt>
      <trkpt lat="47.14303" lon="5.66569">
        <ele>213</ele>
        <time>2016-02-01T08:48:06Z</time>
      </trkpt>
      <trkpt lat="47.14301" lon="5.66585">
        <ele>215</ele>
        <time>2016-02-01T08:48:14Z</time>
      </trkpt>
      <trkpt lat="47.14296" lon="5.66598">
        <ele>216</ele>
        <time>2016-02-01T08:48:22Z</time>
      </trkpt>
      <trkpt lat="47.14295" lon="5.66605">
        <ele>216</ele>
        <time>2016-02-01T08:48:25Z</time>
      </trkpt>
      <trkpt lat="47.14295" lon="5.66612">
        <ele>216</ele>
        <time>2016-02-01T08:48:28Z</time>
      </trkpt>
      <trkpt lat="47.14294" lon="5.66619">
        <ele>216</ele>
        <time>2016-02-01T08:48:32Z</time>
      </trkpt>
      <trkpt lat="47.14283" lon="5.66633">
        <ele>214</ele>
        <time>2016-02-01T08:48:44Z</time>
      </trkpt>
      <trkpt lat="47.14281" lon="5.66639">
        <ele>215</ele>
        <time>2016-02-01T08:48:49Z</time>
      </trkpt>
      <trkpt lat="47.14276" lon="5.6665">
        <ele>214</ele>
        <time>2016-02-01T08:48:56Z</time>
      </trkpt>
      <trkpt lat="47.14274" lon="5.66657">
        <ele>214</ele>
        <time>2016-02-01T08:49:00Z</time>
      </trkpt>
      <trkpt lat="47.14266" lon="5.66676">
        <ele>214</ele>
        <time>2016-02-01T08:49:12Z</time>
      </trkpt>
      <trkpt lat="47.14263" lon="5.66681">
        <ele>213</ele>
        <time>2016-02-01T08:49:17Z</time>
      </trkpt>
      <trkpt lat="47.1426" lon="5.66687">
        <ele>213</ele>
        <time>2016-02-01T08:49:21Z</time>
      </trkpt>
      <trkpt lat="47.14258" lon="5.66693">
        <ele>213</ele>
        <time>2016-02-01T08:49:25Z</time>
      </trkpt>
      <trkpt lat="47.14255" lon="5.66699">
        <ele>213</ele>
        <time>2016-02-01T08:49:29Z</time>
      </trkpt>
      <trkpt lat="47.14254" lon="5.66706">
        <ele>214</ele>
        <time>2016-02-01T08:49:33Z</time>
      </trkpt>
      <trkpt lat="47.14235" lon="5.66758">
        <ele>216</ele>
        <time>2016-02-01T08:50:04Z</time>
      </trkpt>
      <trkpt lat="47.14234" lon="5.66764">
        <ele>216</ele>
        <time>2016-02-01T08:50:07Z</time>
      </trkpt>
      <trkpt lat="47.14217" lon="5.6682">
        <ele>215</ele>
        <time>2016-02-01T08:50:41Z</time>
      </trkpt>
      <trkpt lat="47.14198" lon="5.66875">
        <ele>213</ele>
        <time>2016-02-01T08:51:14Z</time>
      </trkpt>
      <trkpt lat="47.14196" lon="5.66882">
        <ele>212</ele>
        <time>2016-02-01T08:51:18Z</time>
      </trkpt>
      <trkpt lat="47.14193" lon="5.66886">
        <ele>212</ele>
        <time>2016-02-01T08:51:21Z</time>
      </trkpt>
      <trkpt lat="47.14189" lon="5.66892">
        <ele>212</ele>
        <time>2016-02-01T08:51:25Z</time>
      </trkpt>
      <trkpt lat="47.14184" lon="5.66895">
        <ele>212</ele>
        <time>2016-02-01T08:51:29Z</time>
      </trkpt>
      <trkpt lat="47.14185" lon="5.66902">
        <ele>211</ele>
        <time>2016-02-01T08:51:37Z</time>
      </trkpt>
      <trkpt lat="47.1419" lon="5.66904">
        <ele>211</ele>
        <time>2016-02-01T08:51:43Z</time>
      </trkpt>
      <trkpt lat="47.14193" lon="5.66904">
        <ele>212</ele>
        <time>2016-02-01T08:51:51Z</time>
      </trkpt>
      <trkpt lat="47.14195" lon="5.66901">
        <ele>212</ele>
        <time>2016-02-01T08:52:01Z</time>
      </trkpt>
      <trkpt lat="47.14197" lon="5.66893">
        <ele>213</ele>
        <time>2016-02-01T08:52:30Z</time>
      </trkpt>
      <trkpt lat="47.14196" lon="5.66891">
        <ele>211</ele>
        <time>2016-02-01T08:53:13Z</time>
      </trkpt>
      <trkpt lat="47.14194" lon="5.66899">
        <ele>211</ele>
        <time>2016-02-01T08:53:26Z</time>
      </trkpt>
      <trkpt lat="47.14191" lon="5.66906">
        <ele>210</ele>
        <time>2016-02-01T08:53:34Z</time>
      </trkpt>
      <trkpt lat="47.14186" lon="5.66908">
        <ele>210</ele>
        <time>2016-02-01T08:53:40Z</time>
      </trkpt>
      <trkpt lat="47.14182" lon="5.66915">
        <ele>214</ele>
        <time>2016-02-01T08:54:20Z</time>
      </trkpt>
      <trkpt lat="47.14167" lon="5.66954">
        <ele>217</ele>
        <time>2016-02-01T08:54:48Z</time>
      </trkpt>
      <trkpt lat="47.14161" lon="5.66977">
        <ele>216</ele>
        <time>2016-02-01T08:55:03Z</time>
      </trkpt>
      <trkpt lat="47.14159" lon="5.66984">
        <ele>216</ele>
        <time>2016-02-01T08:55:07Z</time>
      </trkpt>
      <trkpt lat="47.14151" lon="5.67004">
        <ele>219</ele>
        <time>2016-02-01T08:55:19Z</time>
      </trkpt>
      <trkpt lat="47.14149" lon="5.6701">
        <ele>219</ele>
        <time>2016-02-01T08:55:23Z</time>
      </trkpt>
      <trkpt lat="47.14147" lon="5.67016">
        <ele>220</ele>
        <time>2016-02-01T08:55:27Z</time>
      </trkpt>
      <trkpt lat="47.14137" lon="5.67041">
        <ele>222</ele>
        <time>2016-02-01T08:55:43Z</time>
      </trkpt>
      <trkpt lat="47.14118" lon="5.67093">
        <ele>220</ele>
        <time>2016-02-01T08:56:18Z</time>
      </trkpt>
      <trkpt lat="47.14113" lon="5.67105">
        <ele>220</ele>
        <time>2016-02-01T08:56:27Z</time>
      </trkpt>
      <trkpt lat="47.14111" lon="5.67112">
        <ele>220</ele>
        <time>2016-02-01T08:56:31Z</time>
      </trkpt>
      <trkpt lat="47.14099" lon="5.67146">
        <ele>219</ele>
        <time>2016-02-01T08:56:52Z</time>
      </trkpt>
      <trkpt lat="47.14095" lon="5.67151">
        <ele>220</ele>
        <time>2016-02-01T08:56:56Z</time>
      </trkpt>
      <trkpt lat="47.14077" lon="5.67204">
        <ele>220</ele>
        <time>2016-02-01T08:57:29Z</time>
      </trkpt>
      <trkpt lat="47.14058" lon="5.67256">
        <ele>220</ele>
        <time>2016-02-01T08:58:01Z</time>
      </trkpt>
      <trkpt lat="47.14041" lon="5.6731">
        <ele>219</ele>
        <time>2016-02-01T08:58:33Z</time>
      </trkpt>
      <trkpt lat="47.14036" lon="5.67323">
        <ele>219</ele>
        <time>2016-02-01T08:58:41Z</time>
      </trkpt>
      <trkpt lat="47.14035" lon="5.6733">
        <ele>219</ele>
        <time>2016-02-01T08:58:45Z</time>
      </trkpt>
      <trkpt lat="47.1403" lon="5.67351">
        <ele>219</ele>
        <time>2016-02-01T08:58:58Z</time>
      </trkpt>
      <trkpt lat="47.14025" lon="5.6737">
        <ele>220</ele>
        <time>2016-02-01T08:59:10Z</time>
      </trkpt>
      <trkpt lat="47.1402" lon="5.67401">
        <ele>220</ele>
        <time>2016-02-01T08:59:29Z</time>
      </trkpt>
      <trkpt lat="47.14011" lon="5.67456">
        <ele>219</ele>
        <time>2016-02-01T09:00:03Z</time>
      </trkpt>
      <trkpt lat="47.1401" lon="5.67463">
        <ele>219</ele>
        <time>2016-02-01T09:00:07Z</time>
      </trkpt>
      <trkpt lat="47.14009" lon="5.67479">
        <ele>218</ele>
        <time>2016-02-01T09:00:17Z</time>
      </trkpt>
      <trkpt lat="47.14008" lon="5.67486">
        <ele>218</ele>
        <time>2016-02-01T09:00:21Z</time>
      </trkpt>
      <trkpt lat="47.14006" lon="5.67509">
        <ele>218</ele>
        <time>2016-02-01T09:00:35Z</time>
      </trkpt>
      <trkpt lat="47.14006" lon="5.67523">
        <ele>218</ele>
        <time>2016-02-01T09:00:44Z</time>
      </trkpt>
      <trkpt lat="47.14006" lon="5.67539">
        <ele>218</ele>
        <time>2016-02-01T09:00:53Z</time>
      </trkpt>
      <trkpt lat="47.14012" lon="5.67595">
        <ele>219</ele>
        <time>2016-02-01T09:01:25Z</time>
      </trkpt>
      <trkpt lat="47.14023" lon="5.67648">
        <ele>219</ele>
        <time>2016-02-01T09:01:57Z</time>
      </trkpt>
      <trkpt lat="47.14029" lon="5.67668">
        <ele>220</ele>
        <time>2016-02-01T09:02:09Z</time>
      </trkpt>
      <trkpt lat="47.14045" lon="5.67722">
        <ele>220</ele>
        <time>2016-02-01T09:02:41Z</time>
      </trkpt>
      <trkpt lat="47.14061" lon="5.67775">
        <ele>220</ele>
        <time>2016-02-01T09:03:13Z</time>
      </trkpt>
      <trkpt lat="47.14068" lon="5.67802">
        <ele>220</ele>
        <time>2016-02-01T09:03:29Z</time>
      </trkpt>
      <trkpt lat="47.1408" lon="5.67843">
        <ele>219</ele>
        <time>2016-02-01T09:03:54Z</time>
      </trkpt>
      <trkpt lat="47.14085" lon="5.67857">
        <ele>219</ele>
        <time>2016-02-01T09:04:02Z</time>
      </trkpt>
      <trkpt lat="47.14104" lon="5.67909">
        <ele>219</ele>
        <time>2016-02-01T09:04:34Z</time>
      </trkpt>
      <trkpt lat="47.14107" lon="5.67916">
        <ele>218</ele>
        <time>2016-02-01T09:04:38Z</time>
      </trkpt>
      <trkpt lat="47.14109" lon="5.67922">
        <ele>218</ele>
        <time>2016-02-01T09:04:42Z</time>
      </trkpt>
      <trkpt lat="47.14111" lon="5.67929">
        <ele>219</ele>
        <time>2016-02-01T09:04:46Z</time>
      </trkpt>
      <trkpt lat="47.14116" lon="5.67942">
        <ele>219</ele>
        <time>2016-02-01T09:04:55Z</time>
      </trkpt>
      <trkpt lat="47.1412" lon="5.67955">
        <ele>219</ele>
        <time>2016-02-01T09:05:03Z</time>
      </trkpt>
      <trkpt lat="47.14126" lon="5.67967">
        <ele>219</ele>
        <time>2016-02-01T09:05:11Z</time>
      </trkpt>
      <trkpt lat="47.14147" lon="5.6801">
        <ele>217</ele>
        <time>2016-02-01T09:05:41Z</time>
      </trkpt>
      <trkpt lat="47.1415" lon="5.68015">
        <ele>217</ele>
        <time>2016-02-01T09:05:45Z</time>
      </trkpt>
      <trkpt lat="47.14163" lon="5.68037">
        <ele>218</ele>
        <time>2016-02-01T09:06:01Z</time>
      </trkpt>
      <trkpt lat="47.14167" lon="5.68043">
        <ele>218</ele>
        <time>2016-02-01T09:06:05Z</time>
      </trkpt>
      <trkpt lat="47.14183" lon="5.68061">
        <ele>215</ele>
        <time>2016-02-01T09:06:20Z</time>
      </trkpt>
      <trkpt lat="47.14187" lon="5.68066">
        <ele>215</ele>
        <time>2016-02-01T09:06:24Z</time>
      </trkpt>
      <trkpt lat="47.14191" lon="5.68069">
        <ele>215</ele>
        <time>2016-02-01T09:06:28Z</time>
      </trkpt>
      <trkpt lat="47.14196" lon="5.68072">
        <ele>215</ele>
        <time>2016-02-01T09:06:32Z</time>
      </trkpt>
      <trkpt lat="47.14204" lon="5.68076">
        <ele>215</ele>
        <time>2016-02-01T09:06:42Z</time>
      </trkpt>
      <trkpt lat="47.14207" lon="5.68073">
        <ele>215</ele>
        <time>2016-02-01T09:07:29Z</time>
      </trkpt>
      <trkpt lat="47.14237" lon="5.68067">
        <ele>217</ele>
        <time>2016-02-01T09:17:16Z</time>
      </trkpt>
      <trkpt lat="47.1424" lon="5.68061">
        <ele>217</ele>
        <time>2016-02-01T09:17:20Z</time>
      </trkpt>
      <trkpt lat="47.14241" lon="5.68053">
        <ele>217</ele>
        <time>2016-02-01T09:17:23Z</time>
      </trkpt>
      <trkpt lat="47.1424" lon="5.68037">
        <ele>217</ele>
        <time>2016-02-01T09:17:29Z</time>
      </trkpt>
      <trkpt lat="47.14238" lon="5.68022">
        <ele>219</ele>
        <time>2016-02-01T09:17:39Z</time>
      </trkpt>
      <trkpt lat="47.14241" lon="5.68007">
        <ele>219</ele>
        <time>2016-02-01T09:17:47Z</time>
      </trkpt>
      <trkpt lat="47.14242" lon="5.68">
        <ele>220</ele>
        <time>2016-02-01T09:17:52Z</time>
      </trkpt>
      <trkpt lat="47.14244" lon="5.67994">
        <ele>220</ele>
        <time>2016-02-01T09:17:58Z</time>
      </trkpt>
      <trkpt lat="47.14248" lon="5.67989">
        <ele>220</ele>
        <time>2016-02-01T09:18:03Z</time>
      </trkpt>
      <trkpt lat="47.14252" lon="5.67986">
        <ele>220</ele>
        <time>2016-02-01T09:18:08Z</time>
      </trkpt>
      <trkpt lat="47.14257" lon="5.67983">
        <ele>220</ele>
        <time>2016-02-01T09:18:13Z</time>
      </trkpt>
      <trkpt lat="47.14277" lon="5.67976">
        <ele>218</ele>
        <time>2016-02-01T09:18:32Z</time>
      </trkpt>
      <trkpt lat="47.14282" lon="5.67978">
        <ele>218</ele>
        <time>2016-02-01T09:18:37Z</time>
      </trkpt>
      <trkpt lat="47.14296" lon="5.67988">
        <ele>219</ele>
        <time>2016-02-01T09:18:52Z</time>
      </trkpt>
      <trkpt lat="47.14303" lon="5.68">
        <ele>220</ele>
        <time>2016-02-01T09:19:02Z</time>
      </trkpt>
      <trkpt lat="47.14315" lon="5.68024">
        <ele>221</ele>
        <time>2016-02-01T09:19:22Z</time>
      </trkpt>
      <trkpt lat="47.14319" lon="5.6803">
        <ele>222</ele>
        <time>2016-02-01T09:19:27Z</time>
      </trkpt>
      <trkpt lat="47.14337" lon="5.68072">
        <ele>228</ele>
        <time>2016-02-01T09:20:00Z</time>
      </trkpt>
      <trkpt lat="47.14355" lon="5.68098">
        <ele>230</ele>
        <time>2016-02-01T09:20:22Z</time>
      </trkpt>
      <trkpt lat="47.14363" lon="5.68108">
        <ele>230</ele>
        <time>2016-02-01T09:20:30Z</time>
      </trkpt>
      <trkpt lat="47.144" lon="5.68131">
        <ele>232</ele>
        <time>2016-02-01T09:21:03Z</time>
      </trkpt>
      <trkpt lat="47.14405" lon="5.68134">
        <ele>232</ele>
        <time>2016-02-01T09:21:08Z</time>
      </trkpt>
      <trkpt lat="47.14408" lon="5.68136">
        <ele>232</ele>
        <time>2016-02-01T09:21:10Z</time>
      </trkpt>
      <trkpt lat="47.14424" lon="5.68141">
        <ele>230</ele>
        <time>2016-02-01T09:21:24Z</time>
      </trkpt>
      <trkpt lat="47.14428" lon="5.68144">
        <ele>230</ele>
        <time>2016-02-01T09:21:29Z</time>
      </trkpt>
      <trkpt lat="47.14448" lon="5.68155">
        <ele>235</ele>
        <time>2016-02-01T09:21:54Z</time>
      </trkpt>
      <trkpt lat="47.14453" lon="5.68159">
        <ele>236</ele>
        <time>2016-02-01T09:21:58Z</time>
      </trkpt>
      <trkpt lat="47.14457" lon="5.68161">
        <ele>235</ele>
        <time>2016-02-01T09:22:02Z</time>
      </trkpt>
      <trkpt lat="47.14463" lon="5.6816">
        <ele>235</ele>
        <time>2016-02-01T09:22:06Z</time>
      </trkpt>
      <trkpt lat="47.14473" lon="5.68164">
        <ele>234</ele>
        <time>2016-02-01T09:22:14Z</time>
      </trkpt>
      <trkpt lat="47.14505" lon="5.68185">
        <ele>234</ele>
        <time>2016-02-01T09:22:44Z</time>
      </trkpt>
      <trkpt lat="47.14509" lon="5.6819">
        <ele>234</ele>
        <time>2016-02-01T09:22:49Z</time>
      </trkpt>
      <trkpt lat="47.14542" lon="5.6821">
        <ele>239</ele>
        <time>2016-02-01T09:23:20Z</time>
      </trkpt>
      <trkpt lat="47.14549" lon="5.68221">
        <ele>238</ele>
        <time>2016-02-01T09:23:27Z</time>
      </trkpt>
      <trkpt lat="47.14561" lon="5.68234">
        <ele>239</ele>
        <time>2016-02-01T09:23:43Z</time>
      </trkpt>
      <trkpt lat="47.14565" lon="5.68238">
        <ele>239</ele>
        <time>2016-02-01T09:23:48Z</time>
      </trkpt>
      <trkpt lat="47.14569" lon="5.68242">
        <ele>238</ele>
        <time>2016-02-01T09:23:53Z</time>
      </trkpt>
      <trkpt lat="47.14572" lon="5.68247">
        <ele>238</ele>
        <time>2016-02-01T09:23:57Z</time>
      </trkpt>
      <trkpt lat="47.14577" lon="5.6825">
        <ele>238</ele>
        <time>2016-02-01T09:24:01Z</time>
      </trkpt>
      <trkpt lat="47.14582" lon="5.68256">
        <ele>239</ele>
        <time>2016-02-01T09:24:07Z</time>
      </trkpt>
      <trkpt lat="47.14588" lon="5.68257">
        <ele>240</ele>
        <time>2016-02-01T09:24:13Z</time>
      </trkpt>
      <trkpt lat="47.14597" lon="5.68261">
        <ele>240</ele>
        <time>2016-02-01T09:24:22Z</time>
      </trkpt>
      <trkpt lat="47.14607" lon="5.68264">
        <ele>239</ele>
        <time>2016-02-01T09:24:34Z</time>
      </trkpt>
      <trkpt lat="47.14616" lon="5.68268">
        <ele>239</ele>
        <time>2016-02-01T09:24:43Z</time>
      </trkpt>
      <trkpt lat="47.14628" lon="5.68278">
        <ele>240</ele>
        <time>2016-02-01T09:24:56Z</time>
      </trkpt>
      <trkpt lat="47.1463" lon="5.68284">
        <ele>239</ele>
        <time>2016-02-01T09:25:05Z</time>
      </trkpt>
      <trkpt lat="47.14634" lon="5.68288">
        <ele>238</ele>
        <time>2016-02-01T09:25:12Z</time>
      </trkpt>
      <trkpt lat="47.1464" lon="5.6829">
        <ele>238</ele>
        <time>2016-02-01T09:25:16Z</time>
      </trkpt>
      <trkpt lat="47.1466" lon="5.68289">
        <ele>241</ele>
        <time>2016-02-01T09:25:31Z</time>
      </trkpt>
      <trkpt lat="47.14665" lon="5.6829">
        <ele>241</ele>
        <time>2016-02-01T09:25:36Z</time>
      </trkpt>
      <trkpt lat="47.1467" lon="5.6829">
        <ele>241</ele>
        <time>2016-02-01T09:25:40Z</time>
      </trkpt>
      <trkpt lat="47.14674" lon="5.68294">
        <ele>240</ele>
        <time>2016-02-01T09:25:46Z</time>
      </trkpt>
      <trkpt lat="47.14684" lon="5.68295">
        <ele>241</ele>
        <time>2016-02-01T09:25:55Z</time>
      </trkpt>
      <trkpt lat="47.14689" lon="5.68294">
        <ele>241</ele>
        <time>2016-02-01T09:26:01Z</time>
      </trkpt>
      <trkpt lat="47.14698" lon="5.68298">
        <ele>242</ele>
        <time>2016-02-01T09:26:10Z</time>
      </trkpt>
      <trkpt lat="47.14708" lon="5.68296">
        <ele>243</ele>
        <time>2016-02-01T09:26:18Z</time>
      </trkpt>
      <trkpt lat="47.14718" lon="5.68293">
        <ele>245</ele>
        <time>2016-02-01T09:26:28Z</time>
      </trkpt>
      <trkpt lat="47.14723" lon="5.68294">
        <ele>245</ele>
        <time>2016-02-01T09:26:32Z</time>
      </trkpt>
      <trkpt lat="47.14732" lon="5.68298">
        <ele>245</ele>
        <time>2016-02-01T09:26:39Z</time>
      </trkpt>
      <trkpt lat="47.14739" lon="5.68309">
        <ele>246</ele>
        <time>2016-02-01T09:26:49Z</time>
      </trkpt>
      <trkpt lat="47.14744" lon="5.68309">
        <ele>246</ele>
        <time>2016-02-01T09:26:54Z</time>
      </trkpt>
      <trkpt lat="47.14749" lon="5.68308">
        <ele>246</ele>
        <time>2016-02-01T09:26:57Z</time>
      </trkpt>
      <trkpt lat="47.14753" lon="5.68307">
        <ele>246</ele>
        <time>2016-02-01T09:27:02Z</time>
      </trkpt>
      <trkpt lat="47.14756" lon="5.68306">
        <ele>245</ele>
        <time>2016-02-01T09:27:35Z</time>
      </trkpt>
      <trkpt lat="47.14761" lon="5.68303">
        <ele>245</ele>
        <time>2016-02-01T09:27:42Z</time>
      </trkpt>
      <trkpt lat="47.14766" lon="5.68302">
        <ele>245</ele>
        <time>2016-02-01T09:27:48Z</time>
      </trkpt>
      <trkpt lat="47.14769" lon="5.68296">
        <ele>246</ele>
        <time>2016-02-01T09:27:54Z</time>
      </trkpt>
      <trkpt lat="47.14767" lon="5.68294">
        <ele>246</ele>
        <time>2016-02-01T09:28:05Z</time>
      </trkpt>
      <trkpt lat="47.14768" lon="5.68287">
        <ele>247</ele>
        <time>2016-02-01T09:28:09Z</time>
      </trkpt>
      <trkpt lat="47.14775" lon="5.68276">
        <ele>249</ele>
        <time>2016-02-01T09:28:22Z</time>
      </trkpt>
      <trkpt lat="47.14778" lon="5.68272">
        <ele>249</ele>
        <time>2016-02-01T09:28:27Z</time>
      </trkpt>
      <trkpt lat="47.14786" lon="5.68264">
        <ele>247</ele>
        <time>2016-02-01T09:28:42Z</time>
      </trkpt>
      <trkpt lat="47.14792" lon="5.68257">
        <ele>246</ele>
        <time>2016-02-01T09:28:55Z</time>
      </trkpt>
      <trkpt lat="47.14803" lon="5.68246">
        <ele>248</ele>
        <time>2016-02-01T09:29:11Z</time>
      </trkpt>
      <trkpt lat="47.14821" lon="5.68225">
        <ele>248</ele>
        <time>2016-02-01T09:29:31Z</time>
      </trkpt>
      <trkpt lat="47.14825" lon="5.6822">
        <ele>249</ele>
        <time>2016-02-01T09:29:36Z</time>
      </trkpt>
      <trkpt lat="47.1483" lon="5.68218">
        <ele>249</ele>
        <time>2016-02-01T09:29:42Z</time>
      </trkpt>
      <trkpt lat="47.14839" lon="5.68199">
        <ele>251</ele>
        <time>2016-02-01T09:29:55Z</time>
      </trkpt>
      <trkpt lat="47.14845" lon="5.68188">
        <ele>250</ele>
        <time>2016-02-01T09:30:03Z</time>
      </trkpt>
      <trkpt lat="47.14852" lon="5.68178">
        <ele>251</ele>
        <time>2016-02-01T09:30:12Z</time>
      </trkpt>
      <trkpt lat="47.14865" lon="5.68128">
        <ele>250</ele>
        <time>2016-02-01T09:30:43Z</time>
      </trkpt>
      <trkpt lat="47.14867" lon="5.68121">
        <ele>250</ele>
        <time>2016-02-01T09:30:47Z</time>
      </trkpt>
      <trkpt lat="47.14873" lon="5.68086">
        <ele>252</ele>
        <time>2016-02-01T09:31:09Z</time>
      </trkpt>
      <trkpt lat="47.14874" lon="5.68079">
        <ele>252</ele>
        <time>2016-02-01T09:31:13Z</time>
      </trkpt>
      <trkpt lat="47.14876" lon="5.68072">
        <ele>251</ele>
        <time>2016-02-01T09:31:17Z</time>
      </trkpt>
      <trkpt lat="47.14877" lon="5.68066">
        <ele>251</ele>
        <time>2016-02-01T09:31:21Z</time>
      </trkpt>
      <trkpt lat="47.14878" lon="5.68059">
        <ele>251</ele>
        <time>2016-02-01T09:31:25Z</time>
      </trkpt>
      <trkpt lat="47.14884" lon="5.68022">
        <ele>252</ele>
        <time>2016-02-01T09:31:45Z</time>
      </trkpt>
      <trkpt lat="47.14886" lon="5.68015">
        <ele>252</ele>
        <time>2016-02-01T09:31:49Z</time>
      </trkpt>
      <trkpt lat="47.14886" lon="5.68008">
        <ele>252</ele>
        <time>2016-02-01T09:31:53Z</time>
      </trkpt>
      <trkpt lat="47.14886" lon="5.67992">
        <ele>253</ele>
        <time>2016-02-01T09:32:01Z</time>
      </trkpt>
      <trkpt lat="47.14889" lon="5.67971">
        <ele>252</ele>
        <time>2016-02-01T09:32:13Z</time>
      </trkpt>
      <trkpt lat="47.14895" lon="5.67944">
        <ele>253</ele>
        <time>2016-02-01T09:32:29Z</time>
      </trkpt>
      <trkpt lat="47.149" lon="5.67939">
        <ele>253</ele>
        <time>2016-02-01T09:32:34Z</time>
      </trkpt>
      <trkpt lat="47.14904" lon="5.67937">
        <ele>253</ele>
        <time>2016-02-01T09:32:38Z</time>
      </trkpt>
      <trkpt lat="47.1491" lon="5.67937">
        <ele>253</ele>
        <time>2016-02-01T09:32:43Z</time>
      </trkpt>
      <trkpt lat="47.1492" lon="5.67938">
        <ele>254</ele>
        <time>2016-02-01T09:32:52Z</time>
      </trkpt>
      <trkpt lat="47.14926" lon="5.67937">
        <ele>254</ele>
        <time>2016-02-01T09:32:57Z</time>
      </trkpt>
      <trkpt lat="47.14941" lon="5.67936">
        <ele>253</ele>
        <time>2016-02-01T09:33:09Z</time>
      </trkpt>
      <trkpt lat="47.14945" lon="5.67937">
        <ele>253</ele>
        <time>2016-02-01T09:33:13Z</time>
      </trkpt>
      <trkpt lat="47.14951" lon="5.67935">
        <ele>253</ele>
        <time>2016-02-01T09:33:22Z</time>
      </trkpt>
      <trkpt lat="47.14955" lon="5.67931">
        <ele>253</ele>
        <time>2016-02-01T09:33:26Z</time>
      </trkpt>
      <trkpt lat="47.1496" lon="5.6793">
        <ele>253</ele>
        <time>2016-02-01T09:33:30Z</time>
      </trkpt>
      <trkpt lat="47.14965" lon="5.67929">
        <ele>252</ele>
        <time>2016-02-01T09:33:37Z</time>
      </trkpt>
      <trkpt lat="47.14968" lon="5.67922">
        <ele>252</ele>
        <time>2016-02-01T09:33:41Z</time>
      </trkpt>
      <trkpt lat="47.14969" lon="5.67914">
        <ele>252</ele>
        <time>2016-02-01T09:33:46Z</time>
      </trkpt>
      <trkpt lat="47.14967" lon="5.67885">
        <ele>252</ele>
        <time>2016-02-01T09:34:04Z</time>
      </trkpt>
      <trkpt lat="47.14963" lon="5.67825">
        <ele>256</ele>
        <time>2016-02-01T09:34:37Z</time>
      </trkpt>
      <trkpt lat="47.1496" lon="5.6781">
        <ele>256</ele>
        <time>2016-02-01T09:34:45Z</time>
      </trkpt>
      <trkpt lat="47.14959" lon="5.67757">
        <ele>258</ele>
        <time>2016-02-01T09:35:15Z</time>
      </trkpt>
      <trkpt lat="47.14951" lon="5.67698">
        <ele>257</ele>
        <time>2016-02-01T09:35:47Z</time>
      </trkpt>
      <trkpt lat="47.1495" lon="5.67692">
        <ele>256</ele>
        <time>2016-02-01T09:35:51Z</time>
      </trkpt>
      <trkpt lat="47.14949" lon="5.67669">
        <ele>256</ele>
        <time>2016-02-01T09:36:03Z</time>
      </trkpt>
      <trkpt lat="47.14949" lon="5.67647">
        <ele>257</ele>
        <time>2016-02-01T09:36:15Z</time>
      </trkpt>
      <trkpt lat="47.14947" lon="5.67632">
        <ele>257</ele>
        <time>2016-02-01T09:36:23Z</time>
      </trkpt>
      <trkpt lat="47.14945" lon="5.67608">
        <ele>259</ele>
        <time>2016-02-01T09:36:35Z</time>
      </trkpt>
      <trkpt lat="47.14938" lon="5.67559">
        <ele>255</ele>
        <time>2016-02-01T09:37:08Z</time>
      </trkpt>
      <trkpt lat="47.14934" lon="5.675">
        <ele>252</ele>
        <time>2016-02-01T09:37:39Z</time>
      </trkpt>
      <trkpt lat="47.14934" lon="5.67494">
        <ele>253</ele>
        <time>2016-02-01T09:37:43Z</time>
      </trkpt>
      <trkpt lat="47.14933" lon="5.67487">
        <ele>253</ele>
        <time>2016-02-01T09:37:47Z</time>
      </trkpt>
      <trkpt lat="47.14933" lon="5.67479">
        <ele>252</ele>
        <time>2016-02-01T09:37:51Z</time>
      </trkpt>
      <trkpt lat="47.14927" lon="5.67454">
        <ele>252</ele>
        <time>2016-02-01T09:38:03Z</time>
      </trkpt>
      <trkpt lat="47.14926" lon="5.67447">
        <ele>252</ele>
        <time>2016-02-01T09:38:07Z</time>
      </trkpt>
      <trkpt lat="47.14926" lon="5.67439">
        <ele>252</ele>
        <time>2016-02-01T09:38:11Z</time>
      </trkpt>
      <trkpt lat="47.14924" lon="5.67431">
        <ele>252</ele>
        <time>2016-02-01T09:38:15Z</time>
      </trkpt>
      <trkpt lat="47.14923" lon="5.67409">
        <ele>252</ele>
        <time>2016-02-01T09:38:27Z</time>
      </trkpt>
      <trkpt lat="47.14919" lon="5.67367">
        <ele>256</ele>
        <time>2016-02-01T09:38:48Z</time>
      </trkpt>
      <trkpt lat="47.14918" lon="5.67339">
        <ele>256</ele>
        <time>2016-02-01T09:39:06Z</time>
      </trkpt>
      <trkpt lat="47.14913" lon="5.67284">
        <ele>254</ele>
        <time>2016-02-01T09:39:36Z</time>
      </trkpt>
      <trkpt lat="47.14913" lon="5.67269">
        <ele>254</ele>
        <time>2016-02-01T09:39:44Z</time>
      </trkpt>
      <trkpt lat="47.14913" lon="5.67255">
        <ele>254</ele>
        <time>2016-02-01T09:39:53Z</time>
      </trkpt>
      <trkpt lat="47.1491" lon="5.67241">
        <ele>252</ele>
        <time>2016-02-01T09:40:01Z</time>
      </trkpt>
      <trkpt lat="47.14907" lon="5.67212">
        <ele>251</ele>
        <time>2016-02-01T09:40:18Z</time>
      </trkpt>
      <trkpt lat="47.14901" lon="5.67156">
        <ele>252</ele>
        <time>2016-02-01T09:40:48Z</time>
      </trkpt>
      <trkpt lat="47.149" lon="5.67141">
        <ele>252</ele>
        <time>2016-02-01T09:40:56Z</time>
      </trkpt>
      <trkpt lat="47.149" lon="5.67127">
        <ele>253</ele>
        <time>2016-02-01T09:41:05Z</time>
      </trkpt>
      <trkpt lat="47.149" lon="5.67121">
        <ele>253</ele>
        <time>2016-02-01T09:41:10Z</time>
      </trkpt>
      <trkpt lat="47.14899" lon="5.67113">
        <ele>253</ele>
        <time>2016-02-01T09:41:14Z</time>
      </trkpt>
      <trkpt lat="47.14897" lon="5.67091">
        <ele>254</ele>
        <time>2016-02-01T09:41:26Z</time>
      </trkpt>
      <trkpt lat="47.14889" lon="5.67031">
        <ele>252</ele>
        <time>2016-02-01T09:42:00Z</time>
      </trkpt>
      <trkpt lat="47.14888" lon="5.67003">
        <ele>253</ele>
        <time>2016-02-01T09:42:14Z</time>
      </trkpt>
      <trkpt lat="47.14885" lon="5.66981">
        <ele>253</ele>
        <time>2016-02-01T09:42:27Z</time>
      </trkpt>
      <trkpt lat="47.14883" lon="5.66966">
        <ele>251</ele>
        <time>2016-02-01T09:42:36Z</time>
      </trkpt>
      <trkpt lat="47.14882" lon="5.66958">
        <ele>251</ele>
        <time>2016-02-01T09:42:40Z</time>
      </trkpt>
      <trkpt lat="47.14879" lon="5.66933">
        <ele>251</ele>
        <time>2016-02-01T09:42:53Z</time>
      </trkpt>
      <trkpt lat="47.14879" lon="5.66925">
        <ele>252</ele>
        <time>2016-02-01T09:42:57Z</time>
      </trkpt>
      <trkpt lat="47.14876" lon="5.66903">
        <ele>253</ele>
        <time>2016-02-01T09:43:09Z</time>
      </trkpt>
      <trkpt lat="47.14876" lon="5.66895">
        <ele>252</ele>
        <time>2016-02-01T09:43:12Z</time>
      </trkpt>
      <trkpt lat="47.14872" lon="5.66865">
        <ele>253</ele>
        <time>2016-02-01T09:43:29Z</time>
      </trkpt>
      <trkpt lat="47.1487" lon="5.66837">
        <ele>255</ele>
        <time>2016-02-01T09:43:45Z</time>
      </trkpt>
      <trkpt lat="47.14868" lon="5.66813">
        <ele>255</ele>
        <time>2016-02-01T09:43:55Z</time>
      </trkpt>
      <trkpt lat="47.14867" lon="5.66805">
        <ele>254</ele>
        <time>2016-02-01T09:43:59Z</time>
      </trkpt>
      <trkpt lat="47.14865" lon="5.66798">
        <ele>254</ele>
        <time>2016-02-01T09:44:03Z</time>
      </trkpt>
      <trkpt lat="47.14864" lon="5.66792">
        <ele>254</ele>
        <time>2016-02-01T09:44:07Z</time>
      </trkpt>
      <trkpt lat="47.1486" lon="5.66746">
        <ele>255</ele>
        <time>2016-02-01T09:44:33Z</time>
      </trkpt>
      <trkpt lat="47.1486" lon="5.66738">
        <ele>254</ele>
        <time>2016-02-01T09:44:38Z</time>
      </trkpt>
      <trkpt lat="47.14859" lon="5.66731">
        <ele>254</ele>
        <time>2016-02-01T09:44:44Z</time>
      </trkpt>
      <trkpt lat="47.14856" lon="5.66726">
        <ele>254</ele>
        <time>2016-02-01T09:44:50Z</time>
      </trkpt>
      <trkpt lat="47.14854" lon="5.6672">
        <ele>252</ele>
        <time>2016-02-01T09:44:55Z</time>
      </trkpt>
      <trkpt lat="47.14854" lon="5.66689">
        <ele>250</ele>
        <time>2016-02-01T09:45:10Z</time>
      </trkpt>
      <trkpt lat="47.14855" lon="5.66681">
        <ele>250</ele>
        <time>2016-02-01T09:45:14Z</time>
      </trkpt>
      <trkpt lat="47.14848" lon="5.66642">
        <ele>249</ele>
        <time>2016-02-01T09:45:33Z</time>
      </trkpt>
      <trkpt lat="47.1485" lon="5.66635">
        <ele>249</ele>
        <time>2016-02-01T09:45:38Z</time>
      </trkpt>
      <trkpt lat="47.1485" lon="5.66606">
        <ele>251</ele>
        <time>2016-02-01T09:45:54Z</time>
      </trkpt>
      <trkpt lat="47.14849" lon="5.66591">
        <ele>250</ele>
        <time>2016-02-01T09:46:03Z</time>
      </trkpt>
      <trkpt lat="47.1485" lon="5.66584">
        <ele>251</ele>
        <time>2016-02-01T09:46:07Z</time>
      </trkpt>
      <trkpt lat="47.1485" lon="5.66577">
        <ele>251</ele>
        <time>2016-02-01T09:46:10Z</time>
      </trkpt>
      <trkpt lat="47.14847" lon="5.66562">
        <ele>252</ele>
        <time>2016-02-01T09:46:18Z</time>
      </trkpt>
      <trkpt lat="47.14847" lon="5.66555">
        <ele>252</ele>
        <time>2016-02-01T09:46:22Z</time>
      </trkpt>
      <trkpt lat="47.14845" lon="5.66547">
        <ele>251</ele>
        <time>2016-02-01T09:46:26Z</time>
      </trkpt>
      <trkpt lat="47.14843" lon="5.66532">
        <ele>252</ele>
        <time>2016-02-01T09:46:34Z</time>
      </trkpt>
      <trkpt lat="47.14842" lon="5.66525">
        <ele>253</ele>
        <time>2016-02-01T09:46:38Z</time>
      </trkpt>
      <trkpt lat="47.14837" lon="5.66504">
        <ele>253</ele>
        <time>2016-02-01T09:46:50Z</time>
      </trkpt>
      <trkpt lat="47.14832" lon="5.66483">
        <ele>255</ele>
        <time>2016-02-01T09:47:02Z</time>
      </trkpt>
      <trkpt lat="47.1483" lon="5.66476">
        <ele>254</ele>
        <time>2016-02-01T09:47:06Z</time>
      </trkpt>
      <trkpt lat="47.14806" lon="5.66417">
        <ele>246</ele>
        <time>2016-02-01T09:47:39Z</time>
      </trkpt>
      <trkpt lat="47.14796" lon="5.664">
        <ele>243</ele>
        <time>2016-02-01T09:47:50Z</time>
      </trkpt>
      <trkpt lat="47.14797" lon="5.66407">
        <ele>243</ele>
        <time>2016-02-01T09:48:01Z</time>
      </trkpt>
      <trkpt lat="47.14798" lon="5.66414">
        <ele>243</ele>
        <time>2016-02-01T09:48:05Z</time>
      </trkpt>
      <trkpt lat="47.148" lon="5.66421">
        <ele>244</ele>
        <time>2016-02-01T09:48:09Z</time>
      </trkpt>
      <trkpt lat="47.14805" lon="5.66434">
        <ele>245</ele>
        <time>2016-02-01T09:48:17Z</time>
      </trkpt>
      <trkpt lat="47.14816" lon="5.66469">
        <ele>246</ele>
        <time>2016-02-01T09:48:39Z</time>
      </trkpt>
      <trkpt lat="47.14819" lon="5.66476">
        <ele>246</ele>
        <time>2016-02-01T09:48:44Z</time>
      </trkpt>
      <trkpt lat="47.14823" lon="5.6648">
        <ele>246</ele>
        <time>2016-02-01T09:48:49Z</time>
      </trkpt>
      <trkpt lat="47.14848" lon="5.66479">
        <ele>247</ele>
        <time>2016-02-01T09:49:13Z</time>
      </trkpt>
      <trkpt lat="47.14853" lon="5.66479">
        <ele>246</ele>
        <time>2016-02-01T09:49:18Z</time>
      </trkpt>
      <trkpt lat="47.14857" lon="5.66474">
        <ele>245</ele>
        <time>2016-02-01T09:49:22Z</time>
      </trkpt>
      <trkpt lat="47.14858" lon="5.66468">
        <ele>244</ele>
        <time>2016-02-01T09:49:25Z</time>
      </trkpt>
      <trkpt lat="47.14866" lon="5.66449">
        <ele>244</ele>
        <time>2016-02-01T09:49:36Z</time>
      </trkpt>
      <trkpt lat="47.14869" lon="5.66442">
        <ele>245</ele>
        <time>2016-02-01T09:49:40Z</time>
      </trkpt>
      <trkpt lat="47.14873" lon="5.66429">
        <ele>246</ele>
        <time>2016-02-01T09:49:49Z</time>
      </trkpt>
      <trkpt lat="47.14873" lon="5.66421">
        <ele>246</ele>
        <time>2016-02-01T09:49:54Z</time>
      </trkpt>
      <trkpt lat="47.14876" lon="5.66416">
        <ele>245</ele>
        <time>2016-02-01T09:49:58Z</time>
      </trkpt>
      <trkpt lat="47.14878" lon="5.6641">
        <ele>244</ele>
        <time>2016-02-01T09:50:02Z</time>
      </trkpt>
      <trkpt lat="47.1488" lon="5.66402">
        <ele>244</ele>
        <time>2016-02-01T09:50:07Z</time>
      </trkpt>
      <trkpt lat="47.14877" lon="5.66387">
        <ele>245</ele>
        <time>2016-02-01T09:50:15Z</time>
      </trkpt>
      <trkpt lat="47.14878" lon="5.66372">
        <ele>245</ele>
        <time>2016-02-01T09:50:24Z</time>
      </trkpt>
      <trkpt lat="47.14876" lon="5.66359">
        <ele>246</ele>
        <time>2016-02-01T09:50:32Z</time>
      </trkpt>
      <trkpt lat="47.14878" lon="5.66346">
        <ele>245</ele>
        <time>2016-02-01T09:50:40Z</time>
      </trkpt>
      <trkpt lat="47.1488" lon="5.66333">
        <ele>244</ele>
        <time>2016-02-01T09:50:48Z</time>
      </trkpt>
      <trkpt lat="47.14886" lon="5.66322">
        <ele>244</ele>
        <time>2016-02-01T09:51:00Z</time>
      </trkpt>
      <trkpt lat="47.14891" lon="5.66322">
        <ele>242</ele>
        <time>2016-02-01T09:51:08Z</time>
      </trkpt>
      <trkpt lat="47.14901" lon="5.66319">
        <ele>241</ele>
        <time>2016-02-01T09:51:18Z</time>
      </trkpt>
      <trkpt lat="47.14911" lon="5.66313">
        <ele>241</ele>
        <time>2016-02-01T09:51:28Z</time>
      </trkpt>
      <trkpt lat="47.14919" lon="5.66303">
        <ele>241</ele>
        <time>2016-02-01T09:51:36Z</time>
      </trkpt>
      <trkpt lat="47.14928" lon="5.66294">
        <ele>240</ele>
        <time>2016-02-01T09:51:44Z</time>
      </trkpt>
      <trkpt lat="47.14938" lon="5.66294">
        <ele>240</ele>
        <time>2016-02-01T09:51:52Z</time>
      </trkpt>
      <trkpt lat="47.14948" lon="5.66297">
        <ele>240</ele>
        <time>2016-02-01T09:52:00Z</time>
      </trkpt>
      <trkpt lat="47.14987" lon="5.66314">
        <ele>236</ele>
        <time>2016-02-01T09:52:33Z</time>
      </trkpt>
      <trkpt lat="47.14997" lon="5.66318">
        <ele>236</ele>
        <time>2016-02-01T09:52:41Z</time>
      </trkpt>
      <trkpt lat="47.15014" lon="5.66321">
        <ele>236</ele>
        <time>2016-02-01T09:52:53Z</time>
      </trkpt>
      <trkpt lat="47.15025" lon="5.6632">
        <ele>237</ele>
        <time>2016-02-01T09:53:01Z</time>
      </trkpt>
      <trkpt lat="47.1503" lon="5.66317">
        <ele>237</ele>
        <time>2016-02-01T09:53:05Z</time>
      </trkpt>
      <trkpt lat="47.15035" lon="5.66313">
        <ele>238</ele>
        <time>2016-02-01T09:53:12Z</time>
      </trkpt>
      <trkpt lat="47.15043" lon="5.66294">
        <ele>239</ele>
        <time>2016-02-01T09:53:25Z</time>
      </trkpt>
      <trkpt lat="47.15046" lon="5.66288">
        <ele>239</ele>
        <time>2016-02-01T09:53:29Z</time>
      </trkpt>
      <trkpt lat="47.15053" lon="5.66278">
        <ele>241</ele>
        <time>2016-02-01T09:53:38Z</time>
      </trkpt>
      <trkpt lat="47.15062" lon="5.6626">
        <ele>241</ele>
        <time>2016-02-01T09:53:51Z</time>
      </trkpt>
      <trkpt lat="47.15066" lon="5.66259">
        <ele>241</ele>
        <time>2016-02-01T09:53:56Z</time>
      </trkpt>
      <trkpt lat="47.15071" lon="5.66261">
        <ele>241</ele>
        <time>2016-02-01T09:54:00Z</time>
      </trkpt>
      <trkpt lat="47.15074" lon="5.66256">
        <ele>240</ele>
        <time>2016-02-01T09:54:05Z</time>
      </trkpt>
      <trkpt lat="47.15074" lon="5.66241">
        <ele>238</ele>
        <time>2016-02-01T09:54:13Z</time>
      </trkpt>
      <trkpt lat="47.15073" lon="5.66234">
        <ele>237</ele>
        <time>2016-02-01T09:54:17Z</time>
      </trkpt>
      <trkpt lat="47.15072" lon="5.66226">
        <ele>238</ele>
        <time>2016-02-01T09:54:22Z</time>
      </trkpt>
      <trkpt lat="47.15065" lon="5.66177">
        <ele>244</ele>
        <time>2016-02-01T09:54:52Z</time>
      </trkpt>
      <trkpt lat="47.15056" lon="5.66141">
        <ele>247</ele>
        <time>2016-02-01T09:55:26Z</time>
      </trkpt>
      <trkpt lat="47.15055" lon="5.66148">
        <ele>247</ele>
        <time>2016-02-01T09:55:42Z</time>
      </trkpt>
      <trkpt lat="47.15055" lon="5.66145">
        <ele>246</ele>
        <time>2016-02-01T09:56:08Z</time>
      </trkpt>
      <trkpt lat="47.15049" lon="5.66134">
        <ele>247</ele>
        <time>2016-02-01T09:56:15Z</time>
      </trkpt>
      <trkpt lat="47.15045" lon="5.66129">
        <ele>246</ele>
        <time>2016-02-01T09:56:19Z</time>
      </trkpt>
      <trkpt lat="47.15043" lon="5.66124">
        <ele>246</ele>
        <time>2016-02-01T09:56:21Z</time>
      </trkpt>
      <trkpt lat="47.1504" lon="5.66117">
        <ele>246</ele>
        <time>2016-02-01T09:56:26Z</time>
      </trkpt>
      <trkpt lat="47.15023" lon="5.66071">
        <ele>245</ele>
        <time>2016-02-01T09:56:56Z</time>
      </trkpt>
      <trkpt lat="47.15011" lon="5.66031">
        <ele>247</ele>
        <time>2016-02-01T09:57:20Z</time>
      </trkpt>
      <trkpt lat="47.14988" lon="5.65981">
        <ele>245</ele>
        <time>2016-02-01T09:57:55Z</time>
      </trkpt>
      <trkpt lat="47.1498" lon="5.65962">
        <ele>245</ele>
        <time>2016-02-01T09:58:08Z</time>
      </trkpt>
      <trkpt lat="47.14982" lon="5.65956">
        <ele>244</ele>
        <time>2016-02-01T09:58:15Z</time>
      </trkpt>
      <trkpt lat="47.14984" lon="5.6595">
        <ele>243</ele>
        <time>2016-02-01T09:58:21Z</time>
      </trkpt>
      <trkpt lat="47.14981" lon="5.65944">
        <ele>243</ele>
        <time>2016-02-01T09:58:25Z</time>
      </trkpt>
      <trkpt lat="47.14972" lon="5.65918">
        <ele>241</ele>
        <time>2016-02-01T09:58:41Z</time>
      </trkpt>
      <trkpt lat="47.1497" lon="5.65911">
        <ele>241</ele>
        <time>2016-02-01T09:58:46Z</time>
      </trkpt>
      <trkpt lat="47.14967" lon="5.65905">
        <ele>242</ele>
        <time>2016-02-01T09:58:50Z</time>
      </trkpt>
      <trkpt lat="47.14962" lon="5.65885">
        <ele>240</ele>
        <time>2016-02-01T09:59:03Z</time>
      </trkpt>
      <trkpt lat="47.14961" lon="5.6587">
        <ele>240</ele>
        <time>2016-02-01T09:59:13Z</time>
      </trkpt>
      <trkpt lat="47.14962" lon="5.65862">
        <ele>241</ele>
        <time>2016-02-01T09:59:18Z</time>
      </trkpt>
      <trkpt lat="47.14959" lon="5.65855">
        <ele>241</ele>
        <time>2016-02-01T09:59:22Z</time>
      </trkpt>
      <trkpt lat="47.14957" lon="5.65848">
        <ele>240</ele>
        <time>2016-02-01T09:59:26Z</time>
      </trkpt>
      <trkpt lat="47.14954" lon="5.65841">
        <ele>240</ele>
        <time>2016-02-01T09:59:30Z</time>
      </trkpt>
      <trkpt lat="47.14947" lon="5.65814">
        <ele>239</ele>
        <time>2016-02-01T09:59:46Z</time>
      </trkpt>
      <trkpt lat="47.14929" lon="5.65781">
        <ele>236</ele>
        <time>2016-02-01T10:00:11Z</time>
      </trkpt>
      <trkpt lat="47.14925" lon="5.65779">
        <ele>235</ele>
        <time>2016-02-01T10:00:15Z</time>
      </trkpt>
      <trkpt lat="47.14897" lon="5.65778">
        <ele>235</ele>
        <time>2016-02-01T10:00:36Z</time>
      </trkpt>
      <trkpt lat="47.14892" lon="5.65778">
        <ele>235</ele>
        <time>2016-02-01T10:00:40Z</time>
      </trkpt>
      <trkpt lat="47.14889" lon="5.65772">
        <ele>236</ele>
        <time>2016-02-01T10:00:46Z</time>
      </trkpt>
      <trkpt lat="47.14889" lon="5.65764">
        <ele>237</ele>
        <time>2016-02-01T10:00:49Z</time>
      </trkpt>
      <trkpt lat="47.14892" lon="5.65749">
        <ele>238</ele>
        <time>2016-02-01T10:00:56Z</time>
      </trkpt>
      <trkpt lat="47.14892" lon="5.657">
        <ele>234</ele>
        <time>2016-02-01T10:01:26Z</time>
      </trkpt>
      <trkpt lat="47.14888" lon="5.65695">
        <ele>233</ele>
        <time>2016-02-01T10:01:31Z</time>
      </trkpt>
      <trkpt lat="47.14879" lon="5.65688">
        <ele>233</ele>
        <time>2016-02-01T10:01:39Z</time>
      </trkpt>
      <trkpt lat="47.14876" lon="5.65682">
        <ele>233</ele>
        <time>2016-02-01T10:01:43Z</time>
      </trkpt>
      <trkpt lat="47.14876" lon="5.65675">
        <ele>233</ele>
        <time>2016-02-01T10:01:47Z</time>
      </trkpt>
      <trkpt lat="47.14879" lon="5.65669">
        <ele>233</ele>
        <time>2016-02-01T10:01:52Z</time>
      </trkpt>
      <trkpt lat="47.14882" lon="5.65655">
        <ele>233</ele>
        <time>2016-02-01T10:01:59Z</time>
      </trkpt>
      <trkpt lat="47.14887" lon="5.65634">
        <ele>231</ele>
        <time>2016-02-01T10:02:11Z</time>
      </trkpt>
      <trkpt lat="47.14889" lon="5.65626">
        <ele>231</ele>
        <time>2016-02-01T10:02:16Z</time>
      </trkpt>
      <trkpt lat="47.14888" lon="5.65618">
        <ele>231</ele>
        <time>2016-02-01T10:02:21Z</time>
      </trkpt>
      <trkpt lat="47.14888" lon="5.6561">
        <ele>231</ele>
        <time>2016-02-01T10:02:26Z</time>
      </trkpt>
      <trkpt lat="47.14889" lon="5.65602">
        <ele>231</ele>
        <time>2016-02-01T10:02:31Z</time>
      </trkpt>
      <trkpt lat="47.14888" lon="5.65588">
        <ele>233</ele>
        <time>2016-02-01T10:02:39Z</time>
      </trkpt>
      <trkpt lat="47.14887" lon="5.6558">
        <ele>233</ele>
        <time>2016-02-01T10:02:43Z</time>
      </trkpt>
      <trkpt lat="47.14886" lon="5.65565">
        <ele>233</ele>
        <time>2016-02-01T10:02:51Z</time>
      </trkpt>
      <trkpt lat="47.14884" lon="5.65558">
        <ele>233</ele>
        <time>2016-02-01T10:02:55Z</time>
      </trkpt>
      <trkpt lat="47.14874" lon="5.65519">
        <ele>236</ele>
        <time>2016-02-01T10:03:19Z</time>
      </trkpt>
      <trkpt lat="47.14872" lon="5.65497">
        <ele>236</ele>
        <time>2016-02-01T10:03:33Z</time>
      </trkpt>
      <trkpt lat="47.14873" lon="5.6549">
        <ele>235</ele>
        <time>2016-02-01T10:03:38Z</time>
      </trkpt>
      <trkpt lat="47.14874" lon="5.65483">
        <ele>235</ele>
        <time>2016-02-01T10:03:43Z</time>
      </trkpt>
      <trkpt lat="47.14885" lon="5.65468">
        <ele>237</ele>
        <time>2016-02-01T10:03:55Z</time>
      </trkpt>
      <trkpt lat="47.14889" lon="5.65465">
        <ele>237</ele>
        <time>2016-02-01T10:03:58Z</time>
      </trkpt>
      <trkpt lat="47.14892" lon="5.65458">
        <ele>237</ele>
        <time>2016-02-01T10:04:02Z</time>
      </trkpt>
      <trkpt lat="47.14895" lon="5.65454">
        <ele>238</ele>
        <time>2016-02-01T10:04:06Z</time>
      </trkpt>
      <trkpt lat="47.14897" lon="5.65441">
        <ele>239</ele>
        <time>2016-02-01T10:04:14Z</time>
      </trkpt>
      <trkpt lat="47.14899" lon="5.65411">
        <ele>241</ele>
        <time>2016-02-01T10:04:30Z</time>
      </trkpt>
      <trkpt lat="47.14896" lon="5.65354">
        <ele>247</ele>
        <time>2016-02-01T10:05:02Z</time>
      </trkpt>
      <trkpt lat="47.14895" lon="5.65324">
        <ele>248</ele>
        <time>2016-02-01T10:05:18Z</time>
      </trkpt>
      <trkpt lat="47.14893" lon="5.6531">
        <ele>247</ele>
        <time>2016-02-01T10:05:26Z</time>
      </trkpt>
      <trkpt lat="47.1489" lon="5.65287">
        <ele>248</ele>
        <time>2016-02-01T10:05:38Z</time>
      </trkpt>
      <trkpt lat="47.14886" lon="5.65272">
        <ele>247</ele>
        <time>2016-02-01T10:05:47Z</time>
      </trkpt>
      <trkpt lat="47.14884" lon="5.65249">
        <ele>248</ele>
        <time>2016-02-01T10:06:02Z</time>
      </trkpt>
      <trkpt lat="47.14879" lon="5.65221">
        <ele>247</ele>
        <time>2016-02-01T10:06:18Z</time>
      </trkpt>
      <trkpt lat="47.14878" lon="5.65207">
        <ele>248</ele>
        <time>2016-02-01T10:06:25Z</time>
      </trkpt>
      <trkpt lat="47.14879" lon="5.65193">
        <ele>247</ele>
        <time>2016-02-01T10:06:33Z</time>
      </trkpt>
      <trkpt lat="47.1488" lon="5.65162">
        <ele>249</ele>
        <time>2016-02-01T10:06:56Z</time>
      </trkpt>
      <trkpt lat="47.1488" lon="5.65154">
        <ele>249</ele>
        <time>2016-02-01T10:07:01Z</time>
      </trkpt>
      <trkpt lat="47.1488" lon="5.65148">
        <ele>248</ele>
        <time>2016-02-01T10:07:05Z</time>
      </trkpt>
      <trkpt lat="47.14879" lon="5.65141">
        <ele>249</ele>
        <time>2016-02-01T10:07:09Z</time>
      </trkpt>
      <trkpt lat="47.14879" lon="5.65133">
        <ele>248</ele>
        <time>2016-02-01T10:07:13Z</time>
      </trkpt>
      <trkpt lat="47.14878" lon="5.65112">
        <ele>247</ele>
        <time>2016-02-01T10:07:24Z</time>
      </trkpt>
      <trkpt lat="47.14875" lon="5.65106">
        <ele>247</ele>
        <time>2016-02-01T10:07:29Z</time>
      </trkpt>
      <trkpt lat="47.14871" lon="5.65104">
        <ele>247</ele>
        <time>2016-02-01T10:07:33Z</time>
      </trkpt>
      <trkpt lat="47.14867" lon="5.65101">
        <ele>247</ele>
        <time>2016-02-01T10:07:38Z</time>
      </trkpt>
      <trkpt lat="47.14867" lon="5.65095">
        <ele>248</ele>
        <time>2016-02-01T10:07:55Z</time>
      </trkpt>
      <trkpt lat="47.14856" lon="5.65045">
        <ele>241</ele>
        <time>2016-02-01T10:08:25Z</time>
      </trkpt>
      <trkpt lat="47.14855" lon="5.65023">
        <ele>241</ele>
        <time>2016-02-01T10:08:37Z</time>
      </trkpt>
      <trkpt lat="47.1485" lon="5.6498">
        <ele>244</ele>
        <time>2016-02-01T10:09:01Z</time>
      </trkpt>
      <trkpt lat="47.14849" lon="5.64972">
        <ele>244</ele>
        <time>2016-02-01T10:09:05Z</time>
      </trkpt>
      <trkpt lat="47.1485" lon="5.64958">
        <ele>244</ele>
        <time>2016-02-01T10:09:15Z</time>
      </trkpt>
      <trkpt lat="47.14849" lon="5.64935">
        <ele>243</ele>
        <time>2016-02-01T10:09:26Z</time>
      </trkpt>
      <trkpt lat="47.14848" lon="5.64928">
        <ele>243</ele>
        <time>2016-02-01T10:09:29Z</time>
      </trkpt>
      <trkpt lat="47.14851" lon="5.64866">
        <ele>246</ele>
        <time>2016-02-01T10:10:02Z</time>
      </trkpt>
      <trkpt lat="47.14852" lon="5.64859">
        <ele>246</ele>
        <time>2016-02-01T10:10:06Z</time>
      </trkpt>
      <trkpt lat="47.14853" lon="5.64852">
        <ele>246</ele>
        <time>2016-02-01T10:10:10Z</time>
      </trkpt>
      <trkpt lat="47.14854" lon="5.64844">
        <ele>246</ele>
        <time>2016-02-01T10:10:15Z</time>
      </trkpt>
      <trkpt lat="47.14856" lon="5.64829">
        <ele>245</ele>
        <time>2016-02-01T10:10:24Z</time>
      </trkpt>
      <trkpt lat="47.14858" lon="5.64813">
        <ele>246</ele>
        <time>2016-02-01T10:10:35Z</time>
      </trkpt>
      <trkpt lat="47.14859" lon="5.64799">
        <ele>244</ele>
        <time>2016-02-01T10:10:45Z</time>
      </trkpt>
      <trkpt lat="47.1486" lon="5.6479">
        <ele>244</ele>
        <time>2016-02-01T10:10:50Z</time>
      </trkpt>
      <trkpt lat="47.14862" lon="5.6478">
        <ele>245</ele>
        <time>2016-02-01T10:10:55Z</time>
      </trkpt>
      <trkpt lat="47.14864" lon="5.64721">
        <ele>244</ele>
        <time>2016-02-01T10:11:27Z</time>
      </trkpt>
      <trkpt lat="47.14865" lon="5.64713">
        <ele>244</ele>
        <time>2016-02-01T10:11:32Z</time>
      </trkpt>
      <trkpt lat="47.14866" lon="5.64706">
        <ele>244</ele>
        <time>2016-02-01T10:11:36Z</time>
      </trkpt>
      <trkpt lat="47.14863" lon="5.64668">
        <ele>243</ele>
        <time>2016-02-01T10:11:56Z</time>
      </trkpt>
      <trkpt lat="47.14863" lon="5.64661">
        <ele>243</ele>
        <time>2016-02-01T10:12:00Z</time>
      </trkpt>
      <trkpt lat="47.14862" lon="5.64653">
        <ele>244</ele>
        <time>2016-02-01T10:12:05Z</time>
      </trkpt>
      <trkpt lat="47.1486" lon="5.64638">
        <ele>245</ele>
        <time>2016-02-01T10:12:15Z</time>
      </trkpt>
      <trkpt lat="47.14858" lon="5.6463">
        <ele>244</ele>
        <time>2016-02-01T10:12:21Z</time>
      </trkpt>
      <trkpt lat="47.14859" lon="5.6457">
        <ele>249</ele>
        <time>2016-02-01T10:12:53Z</time>
      </trkpt>
      <trkpt lat="47.1485" lon="5.64546">
        <ele>254</ele>
        <time>2016-02-01T10:13:09Z</time>
      </trkpt>
      <trkpt lat="47.14836" lon="5.64537">
        <ele>250</ele>
        <time>2016-02-01T10:13:21Z</time>
      </trkpt>
      <trkpt lat="47.14824" lon="5.64522">
        <ele>248</ele>
        <time>2016-02-01T10:13:34Z</time>
      </trkpt>
      <trkpt lat="47.14823" lon="5.64515">
        <ele>247</ele>
        <time>2016-02-01T10:13:38Z</time>
      </trkpt>
      <trkpt lat="47.14826" lon="5.64509">
        <ele>247</ele>
        <time>2016-02-01T10:13:44Z</time>
      </trkpt>
      <trkpt lat="47.1483" lon="5.64504">
        <ele>247</ele>
        <time>2016-02-01T10:13:50Z</time>
      </trkpt>
      <trkpt lat="47.14831" lon="5.64497">
        <ele>247</ele>
        <time>2016-02-01T10:13:54Z</time>
      </trkpt>
      <trkpt lat="47.14835" lon="5.64492">
        <ele>246</ele>
        <time>2016-02-01T10:13:58Z</time>
      </trkpt>
      <trkpt lat="47.14842" lon="5.64464">
        <ele>244</ele>
        <time>2016-02-01T10:14:14Z</time>
      </trkpt>
      <trkpt lat="47.14848" lon="5.64452">
        <ele>244</ele>
        <time>2016-02-01T10:14:23Z</time>
      </trkpt>
      <trkpt lat="47.14853" lon="5.64448">
        <ele>244</ele>
        <time>2016-02-01T10:14:26Z</time>
      </trkpt>
      <trkpt lat="47.14856" lon="5.64439">
        <ele>245</ele>
        <time>2016-02-01T10:14:31Z</time>
      </trkpt>
      <trkpt lat="47.14857" lon="5.64429">
        <ele>245</ele>
        <time>2016-02-01T10:14:35Z</time>
      </trkpt>
      <trkpt lat="47.14862" lon="5.64408">
        <ele>246</ele>
        <time>2016-02-01T10:14:47Z</time>
      </trkpt>
      <trkpt lat="47.14869" lon="5.64387">
        <ele>246</ele>
        <time>2016-02-01T10:15:00Z</time>
      </trkpt>
      <trkpt lat="47.14873" lon="5.64374">
        <ele>245</ele>
        <time>2016-02-01T10:15:07Z</time>
      </trkpt>
      <trkpt lat="47.14879" lon="5.64362">
        <ele>245</ele>
        <time>2016-02-01T10:15:15Z</time>
      </trkpt>
      <trkpt lat="47.14887" lon="5.64337">
        <ele>244</ele>
        <time>2016-02-01T10:15:30Z</time>
      </trkpt>
      <trkpt lat="47.14903" lon="5.6431">
        <ele>246</ele>
        <time>2016-02-01T10:15:51Z</time>
      </trkpt>
      <trkpt lat="47.1492" lon="5.64266">
        <ele>247</ele>
        <time>2016-02-01T10:16:21Z</time>
      </trkpt>
      <trkpt lat="47.14923" lon="5.6426">
        <ele>247</ele>
        <time>2016-02-01T10:16:26Z</time>
      </trkpt>
      <trkpt lat="47.14925" lon="5.64254">
        <ele>247</ele>
        <time>2016-02-01T10:16:30Z</time>
      </trkpt>
      <trkpt lat="47.14926" lon="5.64246">
        <ele>247</ele>
        <time>2016-02-01T10:16:34Z</time>
      </trkpt>
      <trkpt lat="47.14929" lon="5.64232">
        <ele>247</ele>
        <time>2016-02-01T10:16:42Z</time>
      </trkpt>
      <trkpt lat="47.14938" lon="5.64207">
        <ele>247</ele>
        <time>2016-02-01T10:16:58Z</time>
      </trkpt>
      <trkpt lat="47.14938" lon="5.64199">
        <ele>246</ele>
        <time>2016-02-01T10:17:02Z</time>
      </trkpt>
      <trkpt lat="47.14941" lon="5.64192">
        <ele>246</ele>
        <time>2016-02-01T10:17:06Z</time>
      </trkpt>
      <trkpt lat="47.14945" lon="5.64187">
        <ele>245</ele>
        <time>2016-02-01T10:17:10Z</time>
      </trkpt>
      <trkpt lat="47.14953" lon="5.64167">
        <ele>245</ele>
        <time>2016-02-01T10:17:22Z</time>
      </trkpt>
      <trkpt lat="47.14969" lon="5.64138">
        <ele>248</ele>
        <time>2016-02-01T10:17:43Z</time>
      </trkpt>
      <trkpt lat="47.14975" lon="5.64116">
        <ele>247</ele>
        <time>2016-02-01T10:17:54Z</time>
      </trkpt>
      <trkpt lat="47.14978" lon="5.641">
        <ele>246</ele>
        <time>2016-02-01T10:18:02Z</time>
      </trkpt>
      <trkpt lat="47.1498" lon="5.64093">
        <ele>246</ele>
        <time>2016-02-01T10:18:06Z</time>
      </trkpt>
      <trkpt lat="47.14983" lon="5.64087">
        <ele>246</ele>
        <time>2016-02-01T10:18:10Z</time>
      </trkpt>
      <trkpt lat="47.1499" lon="5.64068">
        <ele>248</ele>
        <time>2016-02-01T10:18:24Z</time>
      </trkpt>
      <trkpt lat="47.14996" lon="5.64056">
        <ele>248</ele>
        <time>2016-02-01T10:18:32Z</time>
      </trkpt>
      <trkpt lat="47.15001" lon="5.64042">
        <ele>248</ele>
        <time>2016-02-01T10:18:40Z</time>
      </trkpt>
      <trkpt lat="47.15001" lon="5.64034">
        <ele>247</ele>
        <time>2016-02-01T10:18:44Z</time>
      </trkpt>
      <trkpt lat="47.15005" lon="5.6402">
        <ele>248</ele>
        <time>2016-02-01T10:18:53Z</time>
      </trkpt>
      <trkpt lat="47.15006" lon="5.64012">
        <ele>249</ele>
        <time>2016-02-01T10:18:58Z</time>
      </trkpt>
      <trkpt lat="47.15008" lon="5.63952">
        <ele>252</ele>
        <time>2016-02-01T10:19:31Z</time>
      </trkpt>
      <trkpt lat="47.15008" lon="5.63939">
        <ele>253</ele>
        <time>2016-02-01T10:19:39Z</time>
      </trkpt>
      <trkpt lat="47.15011" lon="5.63924">
        <ele>251</ele>
        <time>2016-02-01T10:19:48Z</time>
      </trkpt>
      <trkpt lat="47.15013" lon="5.63918">
        <ele>250</ele>
        <time>2016-02-01T10:19:52Z</time>
      </trkpt>
      <trkpt lat="47.15014" lon="5.63904">
        <ele>249</ele>
        <time>2016-02-01T10:20:01Z</time>
      </trkpt>
      <trkpt lat="47.15016" lon="5.63889">
        <ele>250</ele>
        <time>2016-02-01T10:20:10Z</time>
      </trkpt>
      <trkpt lat="47.15018" lon="5.63882">
        <ele>250</ele>
        <time>2016-02-01T10:20:15Z</time>
      </trkpt>
      <trkpt lat="47.15016" lon="5.63886">
        <ele>249</ele>
        <time>2016-02-01T10:20:41Z</time>
      </trkpt>
      <trkpt lat="47.15017" lon="5.63892">
        <ele>249</ele>
        <time>2016-02-01T10:20:45Z</time>
      </trkpt>
      <trkpt lat="47.1502" lon="5.63898">
        <ele>250</ele>
        <time>2016-02-01T10:20:53Z</time>
      </trkpt>
      <trkpt lat="47.15024" lon="5.63898">
        <ele>250</ele>
        <time>2016-02-01T10:21:30Z</time>
      </trkpt>
      <trkpt lat="47.15025" lon="5.63882">
        <ele>249</ele>
        <time>2016-02-01T10:21:51Z</time>
      </trkpt>
      <trkpt lat="47.15032" lon="5.63863">
        <ele>246</ele>
        <time>2016-02-01T10:22:32Z</time>
      </trkpt>
      <trkpt lat="47.15041" lon="5.63854">
        <ele>246</ele>
        <time>2016-02-01T10:22:40Z</time>
      </trkpt>
      <trkpt lat="47.15041" lon="5.63845">
        <ele>246</ele>
        <time>2016-02-01T10:22:44Z</time>
      </trkpt>
      <trkpt lat="47.15042" lon="5.6383">
        <ele>245</ele>
        <time>2016-02-01T10:22:53Z</time>
      </trkpt>
      <trkpt lat="47.15043" lon="5.63822">
        <ele>243</ele>
        <time>2016-02-01T10:22:58Z</time>
      </trkpt>
      <trkpt lat="47.15043" lon="5.6377">
        <ele>238</ele>
        <time>2016-02-01T10:23:26Z</time>
      </trkpt>
      <trkpt lat="47.15045" lon="5.6376">
        <ele>238</ele>
        <time>2016-02-01T10:23:32Z</time>
      </trkpt>
      <trkpt lat="47.15044" lon="5.63751">
        <ele>238</ele>
        <time>2016-02-01T10:23:36Z</time>
      </trkpt>
      <trkpt lat="47.15042" lon="5.63735">
        <ele>238</ele>
        <time>2016-02-01T10:23:44Z</time>
      </trkpt>
      <trkpt lat="47.15042" lon="5.63728">
        <ele>238</ele>
        <time>2016-02-01T10:23:48Z</time>
      </trkpt>
      <trkpt lat="47.15041" lon="5.63719">
        <ele>238</ele>
        <time>2016-02-01T10:23:52Z</time>
      </trkpt>
      <trkpt lat="47.15039" lon="5.63705">
        <ele>238</ele>
        <time>2016-02-01T10:24:00Z</time>
      </trkpt>
      <trkpt lat="47.15034" lon="5.63649">
        <ele>240</ele>
        <time>2016-02-01T10:24:28Z</time>
      </trkpt>
      <trkpt lat="47.15033" lon="5.63633">
        <ele>240</ele>
        <time>2016-02-01T10:24:36Z</time>
      </trkpt>
      <trkpt lat="47.15032" lon="5.63626">
        <ele>238</ele>
        <time>2016-02-01T10:24:40Z</time>
      </trkpt>
      <trkpt lat="47.15031" lon="5.63583">
        <ele>237</ele>
        <time>2016-02-01T10:25:04Z</time>
      </trkpt>
      <trkpt lat="47.15024" lon="5.63526">
        <ele>241</ele>
        <time>2016-02-01T10:25:34Z</time>
      </trkpt>
      <trkpt lat="47.15023" lon="5.63519">
        <ele>241</ele>
        <time>2016-02-01T10:25:38Z</time>
      </trkpt>
      <trkpt lat="47.15023" lon="5.63512">
        <ele>242</ele>
        <time>2016-02-01T10:25:42Z</time>
      </trkpt>
      <trkpt lat="47.15022" lon="5.63505">
        <ele>242</ele>
        <time>2016-02-01T10:25:46Z</time>
      </trkpt>
      <trkpt lat="47.15019" lon="5.63469">
        <ele>240</ele>
        <time>2016-02-01T10:26:05Z</time>
      </trkpt>
      <trkpt lat="47.15017" lon="5.63461">
        <ele>240</ele>
        <time>2016-02-01T10:26:09Z</time>
      </trkpt>
      <trkpt lat="47.15016" lon="5.63455">
        <ele>240</ele>
        <time>2016-02-01T10:26:12Z</time>
      </trkpt>
      <trkpt lat="47.15013" lon="5.6344">
        <ele>240</ele>
        <time>2016-02-01T10:26:20Z</time>
      </trkpt>
      <trkpt lat="47.1501" lon="5.63434">
        <ele>240</ele>
        <time>2016-02-01T10:26:24Z</time>
      </trkpt>
      <trkpt lat="47.15007" lon="5.63412">
        <ele>239</ele>
        <time>2016-02-01T10:26:37Z</time>
      </trkpt>
      <trkpt lat="47.15004" lon="5.63392">
        <ele>239</ele>
        <time>2016-02-01T10:26:48Z</time>
      </trkpt>
      <trkpt lat="47.15003" lon="5.63385">
        <ele>239</ele>
        <time>2016-02-01T10:26:53Z</time>
      </trkpt>
      <trkpt lat="47.15" lon="5.63364">
        <ele>241</ele>
        <time>2016-02-01T10:27:05Z</time>
      </trkpt>
      <trkpt lat="47.14998" lon="5.63358">
        <ele>241</ele>
        <time>2016-02-01T10:27:10Z</time>
      </trkpt>
      <trkpt lat="47.14993" lon="5.63344">
        <ele>240</ele>
        <time>2016-02-01T10:27:19Z</time>
      </trkpt>
      <trkpt lat="47.14991" lon="5.63337">
        <ele>240</ele>
        <time>2016-02-01T10:27:23Z</time>
      </trkpt>
      <trkpt lat="47.1499" lon="5.63328">
        <ele>240</ele>
        <time>2016-02-01T10:27:27Z</time>
      </trkpt>
      <trkpt lat="47.14987" lon="5.6332">
        <ele>239</ele>
        <time>2016-02-01T10:27:31Z</time>
      </trkpt>
      <trkpt lat="47.14979" lon="5.63276">
        <ele>241</ele>
        <time>2016-02-01T10:27:57Z</time>
      </trkpt>
      <trkpt lat="47.14978" lon="5.63269">
        <ele>241</ele>
        <time>2016-02-01T10:28:01Z</time>
      </trkpt>
      <trkpt lat="47.14977" lon="5.63261">
        <ele>241</ele>
        <time>2016-02-01T10:28:05Z</time>
      </trkpt>
      <trkpt lat="47.14965" lon="5.63218">
        <ele>243</ele>
        <time>2016-02-01T10:28:31Z</time>
      </trkpt>
      <trkpt lat="47.14964" lon="5.6321">
        <ele>243</ele>
        <time>2016-02-01T10:28:36Z</time>
      </trkpt>
      <trkpt lat="47.14963" lon="5.63203">
        <ele>243</ele>
        <time>2016-02-01T10:28:40Z</time>
      </trkpt>
      <trkpt lat="47.14963" lon="5.63195">
        <ele>243</ele>
        <time>2016-02-01T10:28:45Z</time>
      </trkpt>
      <trkpt lat="47.14944" lon="5.6313">
        <ele>241</ele>
        <time>2016-02-01T10:29:19Z</time>
      </trkpt>
      <trkpt lat="47.14934" lon="5.63075">
        <ele>238</ele>
        <time>2016-02-01T10:29:53Z</time>
      </trkpt>
      <trkpt lat="47.1493" lon="5.6306">
        <ele>237</ele>
        <time>2016-02-01T10:30:01Z</time>
      </trkpt>
      <trkpt lat="47.14928" lon="5.63053">
        <ele>237</ele>
        <time>2016-02-01T10:30:05Z</time>
      </trkpt>
      <trkpt lat="47.14924" lon="5.63017">
        <ele>237</ele>
        <time>2016-02-01T10:30:26Z</time>
      </trkpt>
      <trkpt lat="47.14923" lon="5.63011">
        <ele>237</ele>
        <time>2016-02-01T10:30:30Z</time>
      </trkpt>
      <trkpt lat="47.14918" lon="5.62982">
        <ele>237</ele>
        <time>2016-02-01T10:30:46Z</time>
      </trkpt>
      <trkpt lat="47.14917" lon="5.62966">
        <ele>237</ele>
        <time>2016-02-01T10:30:56Z</time>
      </trkpt>
      <trkpt lat="47.14915" lon="5.62958">
        <ele>237</ele>
        <time>2016-02-01T10:31:00Z</time>
      </trkpt>
      <trkpt lat="47.14913" lon="5.62944">
        <ele>236</ele>
        <time>2016-02-01T10:31:08Z</time>
      </trkpt>
      <trkpt lat="47.14905" lon="5.62909">
        <ele>235</ele>
        <time>2016-02-01T10:31:28Z</time>
      </trkpt>
      <trkpt lat="47.14895" lon="5.62902">
        <ele>235</ele>
        <time>2016-02-01T10:31:36Z</time>
      </trkpt>
      <trkpt lat="47.14861" lon="5.62902">
        <ele>240</ele>
        <time>2016-02-01T10:32:06Z</time>
      </trkpt>
      <trkpt lat="47.14831" lon="5.62903">
        <ele>242</ele>
        <time>2016-02-01T10:32:33Z</time>
      </trkpt>
      <trkpt lat="47.14828" lon="5.62902">
        <ele>244</ele>
        <time>2016-02-01T10:32:45Z</time>
      </trkpt>
      <trkpt lat="47.14823" lon="5.62899">
        <ele>244</ele>
        <time>2016-02-01T10:33:14Z</time>
      </trkpt>
      <trkpt lat="47.14813" lon="5.62897">
        <ele>245</ele>
        <time>2016-02-01T10:33:23Z</time>
      </trkpt>
      <trkpt lat="47.14802" lon="5.62896">
        <ele>244</ele>
        <time>2016-02-01T10:33:31Z</time>
      </trkpt>
      <trkpt lat="47.14797" lon="5.62895">
        <ele>244</ele>
        <time>2016-02-01T10:33:34Z</time>
      </trkpt>
      <trkpt lat="47.14793" lon="5.62894">
        <ele>244</ele>
        <time>2016-02-01T10:33:37Z</time>
      </trkpt>
      <trkpt lat="47.14788" lon="5.62897">
        <ele>244</ele>
        <time>2016-02-01T10:33:42Z</time>
      </trkpt>
      <trkpt lat="47.14784" lon="5.629">
        <ele>244</ele>
        <time>2016-02-01T10:33:46Z</time>
      </trkpt>
      <trkpt lat="47.14779" lon="5.62901">
        <ele>244</ele>
        <time>2016-02-01T10:33:49Z</time>
      </trkpt>
      <trkpt lat="47.14775" lon="5.62896">
        <ele>244</ele>
        <time>2016-02-01T10:33:52Z</time>
      </trkpt>
      <trkpt lat="47.1477" lon="5.62897">
        <ele>244</ele>
        <time>2016-02-01T10:33:56Z</time>
      </trkpt>
      <trkpt lat="47.14765" lon="5.62901">
        <ele>245</ele>
        <time>2016-02-01T10:34:01Z</time>
      </trkpt>
      <trkpt lat="47.14756" lon="5.62902">
        <ele>245</ele>
        <time>2016-02-01T10:34:08Z</time>
      </trkpt>
      <trkpt lat="47.1475" lon="5.62903">
        <ele>246</ele>
        <time>2016-02-01T10:34:13Z</time>
      </trkpt>
      <trkpt lat="47.14741" lon="5.62904">
        <ele>248</ele>
        <time>2016-02-01T10:34:22Z</time>
      </trkpt>
      <trkpt lat="47.14735" lon="5.62907">
        <ele>248</ele>
        <time>2016-02-01T10:34:26Z</time>
      </trkpt>
      <trkpt lat="47.14731" lon="5.62907">
        <ele>248</ele>
        <time>2016-02-01T10:34:30Z</time>
      </trkpt>
      <trkpt lat="47.14727" lon="5.62909">
        <ele>248</ele>
        <time>2016-02-01T10:34:34Z</time>
      </trkpt>
      <trkpt lat="47.14718" lon="5.62915">
        <ele>248</ele>
        <time>2016-02-01T10:34:41Z</time>
      </trkpt>
      <trkpt lat="47.14696" lon="5.62914">
        <ele>243</ele>
        <time>2016-02-01T10:34:57Z</time>
      </trkpt>
      <trkpt lat="47.14693" lon="5.62917">
        <ele>243</ele>
        <time>2016-02-01T10:35:07Z</time>
      </trkpt>
      <trkpt lat="47.14689" lon="5.62912">
        <ele>242</ele>
        <time>2016-02-01T10:35:25Z</time>
      </trkpt>
      <trkpt lat="47.14686" lon="5.62906">
        <ele>240</ele>
        <time>2016-02-01T10:35:30Z</time>
      </trkpt>
    </trkseg>
  </trk>
</gpx>